<?xml version="1.0" encoding="UTF-8" ?>
<gpx version="1.1" creator="CartoExploreur 3 3.24" xmlns:xsi="http://www.w3.org/2001/XMLSchema-instance" xmlns="http://www.topografix.com/GPX/1/1" xsi:schemaLocation="http://www.topografix.com/GPX/1/1 http://www.topografix.com/GPX/1/1/gpx.xsd">
    <metadata>
        <time>2017-12-04T21:37:18Z</time>
        <bounds maxlat="47.319073592" maxlon="4.912807137" minlat="47.228963235" minlon="4.895864366" />
    </metadata>
    <trk>
        <name>Rouge Sud Velars Chamboeuf</name>
        <trkseg>
            <trkpt lat="47.319073592" lon="4.907946219">
                <ele>260.000000</ele>
                <time>2017-02-12T06:39:20Z</time>
            </trkpt>
            <trkpt lat="47.318980193" lon="4.908098893">
                <ele>260.000000</ele>
                <time>2017-02-12T06:39:42Z</time>
            </trkpt>
            <trkpt lat="47.318904571" lon="4.908211062">
                <ele>260.000000</ele>
                <time>2017-02-12T06:39:44Z</time>
            </trkpt>
            <trkpt lat="47.318828949" lon="4.908323231">
                <ele>259.000000</ele>
                <time>2017-02-12T06:40:01Z</time>
            </trkpt>
            <trkpt lat="47.318746604" lon="4.908484708">
                <ele>259.000000</ele>
                <time>2017-02-12T06:40:14Z</time>
            </trkpt>
            <trkpt lat="47.318687103" lon="4.908630740">
                <ele>259.000000</ele>
                <time>2017-02-12T06:40:23Z</time>
            </trkpt>
            <trkpt lat="47.318628522" lon="4.908735456">
                <ele>259.000000</ele>
                <time>2017-02-12T06:40:32Z</time>
            </trkpt>
            <trkpt lat="47.318585510" lon="4.908898824">
                <ele>259.000000</ele>
                <time>2017-02-12T06:40:34Z</time>
            </trkpt>
            <trkpt lat="47.318530156" lon="4.909111230">
                <ele>259.000000</ele>
                <time>2017-02-12T06:40:51Z</time>
            </trkpt>
            <trkpt lat="47.318485673" lon="4.909340703">
                <ele>259.000000</ele>
                <time>2017-02-12T06:41:07Z</time>
            </trkpt>
            <trkpt lat="47.318469284" lon="4.909571528">
                <ele>259.000000</ele>
                <time>2017-02-12T06:41:23Z</time>
            </trkpt>
            <trkpt lat="47.318458697" lon="4.909794361">
                <ele>260.000000</ele>
                <time>2017-02-12T06:41:43Z</time>
            </trkpt>
            <trkpt lat="47.318436504" lon="4.910033178">
                <ele>260.000000</ele>
                <time>2017-02-12T06:41:53Z</time>
            </trkpt>
            <trkpt lat="47.318414679" lon="4.910255469">
                <ele>260.000000</ele>
                <time>2017-02-12T06:42:08Z</time>
            </trkpt>
            <trkpt lat="47.318398288" lon="4.910486293">
                <ele>261.000000</ele>
                <time>2017-02-12T06:42:24Z</time>
            </trkpt>
            <trkpt lat="47.318344220" lon="4.910640856">
                <ele>261.000000</ele>
                <time>2017-02-12T06:42:42Z</time>
            </trkpt>
            <trkpt lat="47.318295771" lon="4.910795688">
                <ele>261.000000</ele>
                <time>2017-02-12T06:42:58Z</time>
            </trkpt>
            <trkpt lat="47.318218857" lon="4.910965694">
                <ele>261.000000</ele>
                <time>2017-02-12T06:43:12Z</time>
            </trkpt>
            <trkpt lat="47.318117898" lon="4.910952558">
                <ele>261.000000</ele>
                <time>2017-02-12T06:43:21Z</time>
            </trkpt>
            <trkpt lat="47.318013713" lon="4.910831734">
                <ele>261.000000</ele>
                <time>2017-02-12T06:43:34Z</time>
            </trkpt>
            <trkpt lat="47.317908791" lon="4.910743961">
                <ele>261.000000</ele>
                <time>2017-02-12T06:43:52Z</time>
            </trkpt>
            <trkpt lat="47.317830860" lon="4.910707120">
                <ele>261.000000</ele>
                <time>2017-02-12T06:43:58Z</time>
            </trkpt>
            <trkpt lat="47.317734599" lon="4.910735571">
                <ele>262.000000</ele>
                <time>2017-02-12T06:44:17Z</time>
            </trkpt>
            <trkpt lat="47.317670765" lon="4.910823487">
                <ele>262.000000</ele>
                <time>2017-02-12T06:44:33Z</time>
            </trkpt>
            <trkpt lat="47.317601680" lon="4.910894605">
                <ele>262.000000</ele>
                <time>2017-02-12T06:45:00Z</time>
            </trkpt>
            <trkpt lat="47.317504499" lon="4.910964370">
                <ele>262.000000</ele>
                <time>2017-02-12T06:45:22Z</time>
            </trkpt>
            <trkpt lat="47.317417636" lon="4.911075991">
                <ele>263.000000</ele>
                <time>2017-02-12T06:45:50Z</time>
            </trkpt>
            <trkpt lat="47.317325057" lon="4.910939183">
                <ele>263.000000</ele>
                <time>2017-02-12T06:45:57Z</time>
            </trkpt>
            <trkpt lat="47.317224281" lon="4.910917785">
                <ele>263.000000</ele>
                <time>2017-02-12T06:46:14Z</time>
            </trkpt>
            <trkpt lat="47.317082700" lon="4.910960596">
                <ele>264.000000</ele>
                <time>2017-02-12T06:46:32Z</time>
            </trkpt>
            <trkpt lat="47.317100943" lon="4.911151724">
                <ele>264.000000</ele>
                <time>2017-02-12T06:46:52Z</time>
            </trkpt>
            <trkpt lat="47.317135858" lon="4.911351928">
                <ele>264.000000</ele>
            </trkpt>
            <trkpt lat="47.317174367" lon="4.911643294">
                <ele>265.000000</ele>
            </trkpt>
            <trkpt lat="47.317219231" lon="4.911901879">
                <ele>265.000000</ele>
            </trkpt>
            <trkpt lat="47.317242355" lon="4.912126331">
                <ele>265.000000</ele>
            </trkpt>
            <trkpt lat="47.317281230" lon="4.912401172">
                <ele>265.000000</ele>
            </trkpt>
            <trkpt lat="47.317302190" lon="4.912655996">
                <ele>265.000000</ele>
                <time>2017-02-12T06:47:12Z</time>
            </trkpt>
            <trkpt lat="47.317296741" lon="4.912669659">
                <ele>265.000000</ele>
                <time>2017-02-12T06:47:13Z</time>
            </trkpt>
            <trkpt lat="47.317294682" lon="4.912807137">
                <ele>266.000000</ele>
                <time>2017-02-12T06:47:18Z</time>
            </trkpt>
            <trkpt lat="47.317150243" lon="4.912725729">
                <ele>266.000000</ele>
            </trkpt>
            <trkpt lat="47.317028940" lon="4.912631856">
                <ele>266.000000</ele>
                <time>2017-02-12T06:47:35Z</time>
            </trkpt>
            <trkpt lat="47.316856485" lon="4.912529592">
                <ele>266.000000</ele>
            </trkpt>
            <trkpt lat="47.316767501" lon="4.912483944">
                <ele>267.000000</ele>
            </trkpt>
            <trkpt lat="47.316599849" lon="4.912434506">
                <ele>268.000000</ele>
            </trkpt>
            <trkpt lat="47.316421512" lon="4.912359738">
                <ele>269.000000</ele>
                <time>2017-02-12T06:47:50Z</time>
            </trkpt>
            <trkpt lat="47.316293931" lon="4.912279145">
                <ele>270.000000</ele>
                <time>2017-02-12T06:48:09Z</time>
            </trkpt>
            <trkpt lat="47.316148940" lon="4.912222528">
                <ele>272.000000</ele>
                <time>2017-02-12T06:48:30Z</time>
            </trkpt>
            <trkpt lat="47.315978100" lon="4.912127266">
                <ele>275.000000</ele>
                <time>2017-02-12T06:48:52Z</time>
            </trkpt>
            <trkpt lat="47.315841559" lon="4.911994245">
                <ele>277.000000</ele>
                <time>2017-02-12T06:49:05Z</time>
            </trkpt>
            <trkpt lat="47.315717650" lon="4.911887426">
                <ele>279.000000</ele>
                <time>2017-02-12T06:49:21Z</time>
            </trkpt>
            <trkpt lat="47.315614754" lon="4.911708766">
                <ele>282.000000</ele>
            </trkpt>
            <trkpt lat="47.315513743" lon="4.911529971">
                <ele>284.000000</ele>
                <time>2017-02-12T06:49:40Z</time>
            </trkpt>
            <trkpt lat="47.315453546" lon="4.911370140">
                <ele>284.000000</ele>
            </trkpt>
            <trkpt lat="47.315350465" lon="4.911199745">
                <ele>285.000000</ele>
                <time>2017-02-12T06:50:00Z</time>
            </trkpt>
            <trkpt lat="47.315222331" lon="4.911143944">
                <ele>286.000000</ele>
                <time>2017-02-12T06:50:18Z</time>
            </trkpt>
            <trkpt lat="47.315069418" lon="4.911104422">
                <ele>287.000000</ele>
                <time>2017-02-12T06:50:31Z</time>
            </trkpt>
            <trkpt lat="47.314930323" lon="4.911121606">
                <ele>288.000000</ele>
            </trkpt>
            <trkpt lat="47.314809915" lon="4.911136357">
                <ele>288.000000</ele>
                <time>2017-02-12T06:50:48Z</time>
            </trkpt>
            <trkpt lat="47.314677096" lon="4.911125951">
                <ele>288.000000</ele>
                <time>2017-02-12T06:51:03Z</time>
            </trkpt>
            <trkpt lat="47.314519394" lon="4.911134897">
                <ele>289.000000</ele>
            </trkpt>
            <trkpt lat="47.314370787" lon="4.911133507">
                <ele>289.000000</ele>
                <time>2017-02-12T06:51:19Z</time>
            </trkpt>
            <trkpt lat="47.314232637" lon="4.911129356">
                <ele>290.000000</ele>
            </trkpt>
            <trkpt lat="47.314086541" lon="4.911122318">
                <ele>291.000000</ele>
                <time>2017-02-12T06:51:36Z</time>
            </trkpt>
            <trkpt lat="47.313934825" lon="4.911115010">
                <ele>291.000000</ele>
                <time>2017-02-12T06:51:51Z</time>
            </trkpt>
            <trkpt lat="47.313786152" lon="4.911223646">
                <ele>291.000000</ele>
                <time>2017-02-12T06:52:07Z</time>
            </trkpt>
            <trkpt lat="47.313620069" lon="4.911356255">
                <ele>290.000000</ele>
                <time>2017-02-12T06:52:27Z</time>
            </trkpt>
            <trkpt lat="47.313489174" lon="4.911424390">
                <ele>291.000000</ele>
                <time>2017-02-12T06:52:45Z</time>
            </trkpt>
            <trkpt lat="47.313359751" lon="4.911426426">
                <ele>292.000000</ele>
                <time>2017-02-12T06:52:50Z</time>
            </trkpt>
            <trkpt lat="47.313230144" lon="4.911436725">
                <ele>293.000000</ele>
                <time>2017-02-12T06:53:07Z</time>
            </trkpt>
            <trkpt lat="47.313095470" lon="4.911421966">
                <ele>295.000000</ele>
                <time>2017-02-12T06:53:11Z</time>
            </trkpt>
            <trkpt lat="47.312966047" lon="4.911424002">
                <ele>297.000000</ele>
                <time>2017-02-12T06:53:28Z</time>
            </trkpt>
            <trkpt lat="47.312825386" lon="4.911425497">
                <ele>299.000000</ele>
                <time>2017-02-12T06:53:44Z</time>
            </trkpt>
            <trkpt lat="47.312628718" lon="4.911416023">
                <ele>301.000000</ele>
                <time>2017-02-12T06:53:47Z</time>
            </trkpt>
            <trkpt lat="47.312488609" lon="4.911392731">
                <ele>302.000000</ele>
                <time>2017-02-12T06:54:00Z</time>
            </trkpt>
            <trkpt lat="47.312372265" lon="4.911312688">
                <ele>304.000000</ele>
                <time>2017-02-12T06:54:15Z</time>
            </trkpt>
            <trkpt lat="47.312249934" lon="4.911248898">
                <ele>305.000000</ele>
                <time>2017-02-12T06:54:28Z</time>
            </trkpt>
            <trkpt lat="47.312089926" lon="4.911108855">
                <ele>307.000000</ele>
                <time>2017-02-12T06:54:43Z</time>
            </trkpt>
            <trkpt lat="47.311952210" lon="4.910978158">
                <ele>309.000000</ele>
                <time>2017-02-12T06:55:01Z</time>
            </trkpt>
            <trkpt lat="47.311798005" lon="4.910830126">
                <ele>311.000000</ele>
                <time>2017-02-12T06:55:20Z</time>
            </trkpt>
            <trkpt lat="47.311665907" lon="4.910699700">
                <ele>313.000000</ele>
                <time>2017-02-12T06:55:38Z</time>
            </trkpt>
            <trkpt lat="47.311544128" lon="4.910611127">
                <ele>315.000000</ele>
                <time>2017-02-12T06:55:53Z</time>
            </trkpt>
            <trkpt lat="47.311383383" lon="4.910504136">
                <ele>316.000000</ele>
            </trkpt>
            <trkpt lat="47.311228073" lon="4.910405678">
                <ele>317.000000</ele>
                <time>2017-02-12T06:56:07Z</time>
            </trkpt>
            <trkpt lat="47.311100490" lon="4.910325097">
                <ele>318.000000</ele>
                <time>2017-02-12T06:56:19Z</time>
            </trkpt>
            <trkpt lat="47.310946100" lon="4.910185331">
                <ele>319.000000</ele>
                <time>2017-02-12T06:56:33Z</time>
            </trkpt>
            <trkpt lat="47.310801659" lon="4.910103939">
                <ele>320.000000</ele>
                <time>2017-02-12T06:56:46Z</time>
            </trkpt>
            <trkpt lat="47.310685314" lon="4.910023901">
                <ele>321.000000</ele>
                <time>2017-02-12T06:56:53Z</time>
            </trkpt>
            <trkpt lat="47.310563166" lon="4.909951855">
                <ele>322.000000</ele>
                <time>2017-02-12T06:57:10Z</time>
            </trkpt>
            <trkpt lat="47.310446822" lon="4.909871817">
                <ele>322.000000</ele>
                <time>2017-02-12T06:57:14Z</time>
            </trkpt>
            <trkpt lat="47.310313987" lon="4.909774445">
                <ele>323.000000</ele>
                <time>2017-02-12T06:57:30Z</time>
            </trkpt>
            <trkpt lat="47.310175718" lon="4.909668541">
                <ele>324.000000</ele>
                <time>2017-02-12T06:57:46Z</time>
            </trkpt>
            <trkpt lat="47.310069691" lon="4.909630354">
                <ele>325.000000</ele>
                <time>2017-02-12T06:57:55Z</time>
            </trkpt>
            <trkpt lat="47.309929581" lon="4.909607068">
                <ele>325.000000</ele>
                <time>2017-02-12T06:58:09Z</time>
            </trkpt>
            <trkpt lat="47.309772799" lon="4.909574710">
                <ele>326.000000</ele>
                <time>2017-02-12T06:58:23Z</time>
            </trkpt>
            <trkpt lat="47.309593172" lon="4.909557792">
                <ele>326.000000</ele>
                <time>2017-02-12T06:58:40Z</time>
            </trkpt>
            <trkpt lat="47.309465220" lon="4.909493740">
                <ele>327.000000</ele>
                <time>2017-02-12T06:58:58Z</time>
            </trkpt>
            <trkpt lat="47.309315529" lon="4.909395559">
                <ele>328.000000</ele>
            </trkpt>
            <trkpt lat="47.309199183" lon="4.909315524">
                <ele>330.000000</ele>
            </trkpt>
            <trkpt lat="47.309071599" lon="4.909234949">
                <ele>331.000000</ele>
                <time>2017-02-12T06:59:15Z</time>
            </trkpt>
            <trkpt lat="47.308938029" lon="4.909170627">
                <ele>332.000000</ele>
                <time>2017-02-12T06:59:35Z</time>
            </trkpt>
            <trkpt lat="47.308770560" lon="4.909112945">
                <ele>334.000000</ele>
                <time>2017-02-12T06:59:51Z</time>
            </trkpt>
            <trkpt lat="47.308613593" lon="4.909088850">
                <ele>334.000000</ele>
                <time>2017-02-12T07:00:09Z</time>
            </trkpt>
            <trkpt lat="47.308477999" lon="4.909115406">
                <ele>334.000000</ele>
                <time>2017-02-12T07:00:27Z</time>
            </trkpt>
            <trkpt lat="47.308332086" lon="4.909100113">
                <ele>334.000000</ele>
            </trkpt>
            <trkpt lat="47.308123812" lon="4.909106630">
                <ele>335.000000</ele>
                <time>2017-02-12T07:00:41Z</time>
            </trkpt>
            <trkpt lat="47.307948700" lon="4.909139554">
                <ele>335.000000</ele>
                <time>2017-02-12T07:00:57Z</time>
            </trkpt>
            <trkpt lat="47.307796617" lon="4.909148775">
                <ele>335.000000</ele>
                <time>2017-02-12T07:01:14Z</time>
            </trkpt>
            <trkpt lat="47.307632375" lon="4.909198763">
                <ele>334.000000</ele>
                <time>2017-02-12T07:01:28Z</time>
            </trkpt>
            <trkpt lat="47.307502768" lon="4.909209066">
                <ele>334.000000</ele>
                <time>2017-02-12T07:01:40Z</time>
            </trkpt>
            <trkpt lat="47.307350501" lon="4.909226548">
                <ele>334.000000</ele>
                <time>2017-02-12T07:01:41Z</time>
            </trkpt>
            <trkpt lat="47.307243554" lon="4.909229671">
                <ele>334.000000</ele>
                <time>2017-02-12T07:01:44Z</time>
            </trkpt>
            <trkpt lat="47.307091839" lon="4.909222369">
                <ele>335.000000</ele>
            </trkpt>
            <trkpt lat="47.306951361" lon="4.909215609">
                <ele>335.000000</ele>
                <time>2017-02-12T07:02:01Z</time>
            </trkpt>
            <trkpt lat="47.306804897" lon="4.909225100">
                <ele>335.000000</ele>
                <time>2017-02-12T07:02:13Z</time>
            </trkpt>
            <trkpt lat="47.306636508" lon="4.909208726">
                <ele>336.000000</ele>
                <time>2017-02-12T07:02:25Z</time>
            </trkpt>
            <trkpt lat="47.306513255" lon="4.909186254">
                <ele>336.000000</ele>
                <time>2017-02-12T07:02:27Z</time>
            </trkpt>
            <trkpt lat="47.306384016" lon="4.909180034">
                <ele>336.000000</ele>
                <time>2017-02-12T07:02:42Z</time>
            </trkpt>
            <trkpt lat="47.306248974" lon="4.909181805">
                <ele>336.000000</ele>
                <time>2017-02-12T07:02:52Z</time>
            </trkpt>
            <trkpt lat="47.306096890" lon="4.909191026">
                <ele>336.000000</ele>
            </trkpt>
            <trkpt lat="47.305944807" lon="4.909200247">
                <ele>335.000000</ele>
                <time>2017-02-12T07:03:11Z</time>
            </trkpt>
            <trkpt lat="47.305775682" lon="4.909216918">
                <ele>335.000000</ele>
                <time>2017-02-12T07:03:27Z</time>
            </trkpt>
            <trkpt lat="47.305606373" lon="4.909241849">
                <ele>335.000000</ele>
                <time>2017-02-12T07:03:42Z</time>
            </trkpt>
            <trkpt lat="47.305471147" lon="4.909251881">
                <ele>335.000000</ele>
                <time>2017-02-12T07:03:59Z</time>
            </trkpt>
            <trkpt lat="47.305364384" lon="4.909246743">
                <ele>335.000000</ele>
                <time>2017-02-12T07:04:02Z</time>
            </trkpt>
            <trkpt lat="47.305241132" lon="4.909224271">
                <ele>335.000000</ele>
                <time>2017-02-12T07:04:07Z</time>
            </trkpt>
            <trkpt lat="47.305089784" lon="4.909200448">
                <ele>336.000000</ele>
                <time>2017-02-12T07:04:23Z</time>
            </trkpt>
            <trkpt lat="47.304972151" lon="4.909178247">
                <ele>336.000000</ele>
                <time>2017-02-12T07:04:38Z</time>
            </trkpt>
            <trkpt lat="47.304837108" lon="4.909180018">
                <ele>336.000000</ele>
                <time>2017-02-12T07:04:56Z</time>
            </trkpt>
            <trkpt lat="47.304663652" lon="4.909138592">
                <ele>337.000000</ele>
                <time>2017-02-12T07:05:08Z</time>
            </trkpt>
            <trkpt lat="47.304528609" lon="4.909140363">
                <ele>337.000000</ele>
                <time>2017-02-12T07:05:15Z</time>
            </trkpt>
            <trkpt lat="47.304377078" lon="4.909124801">
                <ele>337.000000</ele>
                <time>2017-02-12T07:05:21Z</time>
            </trkpt>
            <trkpt lat="47.304242035" lon="4.909126572">
                <ele>337.000000</ele>
                <time>2017-02-12T07:05:35Z</time>
            </trkpt>
            <trkpt lat="47.304123850" lon="4.909129154">
                <ele>337.000000</ele>
                <time>2017-02-12T07:05:43Z</time>
            </trkpt>
            <trkpt lat="47.304005849" lon="4.909123475">
                <ele>337.000000</ele>
                <time>2017-02-12T07:05:52Z</time>
            </trkpt>
            <trkpt lat="47.303848330" lon="4.909124165">
                <ele>337.000000</ele>
                <time>2017-02-12T07:05:56Z</time>
            </trkpt>
            <trkpt lat="47.303717619" lon="4.909184032">
                <ele>336.000000</ele>
                <time>2017-02-12T07:06:15Z</time>
            </trkpt>
            <trkpt lat="47.303580002" lon="4.909301454">
                <ele>336.000000</ele>
                <time>2017-02-12T07:06:36Z</time>
            </trkpt>
            <trkpt lat="47.303612512" lon="4.909104547">
                <ele>337.000000</ele>
                <time>2017-02-12T07:07:13Z</time>
            </trkpt>
            <trkpt lat="47.303699741" lon="4.908976430">
                <ele>339.000000</ele>
                <time>2017-02-12T07:08:14Z</time>
            </trkpt>
            <trkpt lat="47.303725528" lon="4.908828818">
                <ele>342.000000</ele>
                <time>2017-02-12T07:08:34Z</time>
            </trkpt>
            <trkpt lat="47.303762734" lon="4.908681465">
                <ele>344.000000</ele>
                <time>2017-02-12T07:08:51Z</time>
            </trkpt>
            <trkpt lat="47.303756531" lon="4.908527406">
                <ele>347.000000</ele>
                <time>2017-02-12T07:09:11Z</time>
            </trkpt>
            <trkpt lat="47.303766757" lon="4.908437133">
                <ele>348.000000</ele>
                <time>2017-02-12T07:09:20Z</time>
            </trkpt>
            <trkpt lat="47.303808248" lon="4.908290114">
                <ele>351.000000</ele>
                <time>2017-02-12T07:09:39Z</time>
            </trkpt>
            <trkpt lat="47.303892507" lon="4.908150470">
                <ele>353.000000</ele>
                <time>2017-02-12T07:09:56Z</time>
            </trkpt>
            <trkpt lat="47.303984619" lon="4.908055664">
                <ele>355.000000</ele>
                <time>2017-02-12T07:10:14Z</time>
            </trkpt>
            <trkpt lat="47.304083453" lon="4.907911564">
                <ele>357.000000</ele>
                <time>2017-02-12T07:10:32Z</time>
            </trkpt>
            <trkpt lat="47.304109974" lon="4.907730906">
                <ele>361.000000</ele>
                <time>2017-02-12T07:10:49Z</time>
            </trkpt>
            <trkpt lat="47.304169474" lon="4.907584913">
                <ele>363.000000</ele>
                <time>2017-02-12T07:11:06Z</time>
            </trkpt>
            <trkpt lat="47.304234592" lon="4.907439190">
                <ele>366.000000</ele>
                <time>2017-02-12T07:11:23Z</time>
            </trkpt>
            <trkpt lat="47.304260745" lon="4.907275053">
                <ele>368.000000</ele>
                <time>2017-02-12T07:11:37Z</time>
            </trkpt>
            <trkpt lat="47.304282013" lon="4.907077603">
                <ele>372.000000</ele>
                <time>2017-02-12T07:11:54Z</time>
            </trkpt>
            <trkpt lat="47.304336445" lon="4.906906556">
                <ele>376.000000</ele>
                <time>2017-02-12T07:12:13Z</time>
            </trkpt>
            <trkpt lat="47.304367297" lon="4.906783993">
                <ele>378.000000</ele>
                <time>2017-02-12T07:12:28Z</time>
            </trkpt>
            <trkpt lat="47.304420809" lon="4.906654250">
                <ele>381.000000</ele>
                <time>2017-02-12T07:12:44Z</time>
            </trkpt>
            <trkpt lat="47.304509873" lon="4.906443518">
                <ele>385.000000</ele>
                <time>2017-02-12T07:13:01Z</time>
            </trkpt>
            <trkpt lat="47.304615610" lon="4.906241857">
                <ele>388.000000</ele>
                <time>2017-02-12T07:13:17Z</time>
            </trkpt>
            <trkpt lat="47.304693436" lon="4.906030583">
                <ele>391.000000</ele>
                <time>2017-02-12T07:13:34Z</time>
            </trkpt>
            <trkpt lat="47.304783817" lon="4.905818207">
                <ele>394.000000</ele>
                <time>2017-02-12T07:13:52Z</time>
            </trkpt>
            <trkpt lat="47.304871324" lon="4.905658113">
                <ele>396.000000</ele>
                <time>2017-02-12T07:14:09Z</time>
            </trkpt>
            <trkpt lat="47.304958412" lon="4.905478321">
                <ele>399.000000</ele>
                <time>2017-02-12T07:14:27Z</time>
            </trkpt>
            <trkpt lat="47.305078441" lon="4.905254860">
                <ele>402.000000</ele>
                <time>2017-02-12T07:14:46Z</time>
            </trkpt>
            <trkpt lat="47.305173324" lon="4.905080181">
                <ele>405.000000</ele>
                <time>2017-02-12T07:15:03Z</time>
            </trkpt>
            <trkpt lat="47.305100318" lon="4.904962080">
                <ele>407.000000</ele>
                <time>2017-02-12T07:15:18Z</time>
            </trkpt>
            <trkpt lat="47.305003675" lon="4.904932575">
                <ele>408.000000</ele>
                <time>2017-02-12T07:15:28Z</time>
            </trkpt>
            <trkpt lat="47.304910049" lon="4.904898042">
                <ele>409.000000</ele>
                <time>2017-02-12T07:15:43Z</time>
            </trkpt>
            <trkpt lat="47.304781143" lon="4.904868758">
                <ele>410.000000</ele>
                <time>2017-02-12T07:16:54Z</time>
            </trkpt>
            <trkpt lat="47.304642502" lon="4.904779399">
                <ele>413.000000</ele>
                <time>2017-02-12T07:16:56Z</time>
            </trkpt>
            <trkpt lat="47.304525419" lon="4.904732425">
                <ele>414.000000</ele>
                <time>2017-02-12T07:17:10Z</time>
            </trkpt>
            <trkpt lat="47.304408152" lon="4.904693713">
                <ele>416.000000</ele>
                <time>2017-02-12T07:17:29Z</time>
            </trkpt>
            <trkpt lat="47.304262973" lon="4.904645390">
                <ele>417.000000</ele>
                <time>2017-02-12T07:17:46Z</time>
            </trkpt>
            <trkpt lat="47.304262966" lon="4.904512055">
                <ele>419.000000</ele>
                <time>2017-02-12T07:18:03Z</time>
            </trkpt>
            <trkpt lat="47.304244107" lon="4.904366042">
                <ele>421.000000</ele>
                <time>2017-02-12T07:18:18Z</time>
            </trkpt>
            <trkpt lat="47.304246621" lon="4.904186251">
                <ele>424.000000</ele>
                <time>2017-02-12T07:18:36Z</time>
            </trkpt>
            <trkpt lat="47.304233462" lon="4.904054320">
                <ele>427.000000</ele>
                <time>2017-02-12T07:18:49Z</time>
            </trkpt>
            <trkpt lat="47.304205131" lon="4.903836474">
                <ele>430.000000</ele>
                <time>2017-02-12T07:19:20Z</time>
            </trkpt>
            <trkpt lat="47.304184008" lon="4.903696077">
                <ele>433.000000</ele>
                <time>2017-02-12T07:19:34Z</time>
            </trkpt>
            <trkpt lat="47.304172190" lon="4.903543778">
                <ele>436.000000</ele>
                <time>2017-02-12T07:19:51Z</time>
            </trkpt>
            <trkpt lat="47.304152049" lon="4.903308640">
                <ele>440.000000</ele>
                <time>2017-02-12T07:20:22Z</time>
            </trkpt>
            <trkpt lat="47.304150481" lon="4.903100543">
                <ele>445.000000</ele>
                <time>2017-02-12T07:20:59Z</time>
            </trkpt>
            <trkpt lat="47.304116088" lon="4.902901699">
                <ele>450.000000</ele>
                <time>2017-02-12T07:21:18Z</time>
            </trkpt>
            <trkpt lat="47.304090928" lon="4.902768176">
                <ele>453.000000</ele>
                <time>2017-02-12T07:21:37Z</time>
            </trkpt>
            <trkpt lat="47.304083726" lon="4.902585898">
                <ele>458.000000</ele>
                <time>2017-02-12T07:21:57Z</time>
            </trkpt>
            <trkpt lat="47.304065286" lon="4.902403080">
                <ele>465.000000</ele>
                <time>2017-02-12T07:22:13Z</time>
            </trkpt>
            <trkpt lat="47.304028153" lon="4.902302061">
                <ele>470.000000</ele>
                <time>2017-02-12T07:22:31Z</time>
            </trkpt>
            <trkpt lat="47.304025469" lon="4.902169618">
                <ele>476.000000</ele>
                <time>2017-02-12T07:22:48Z</time>
            </trkpt>
            <trkpt lat="47.304038725" lon="4.902079288">
                <ele>480.000000</ele>
                <time>2017-02-12T07:23:09Z</time>
            </trkpt>
            <trkpt lat="47.303985102" lon="4.901960939">
                <ele>486.000000</ele>
                <time>2017-02-12T07:23:25Z</time>
            </trkpt>
            <trkpt lat="47.303976248" lon="4.901853008">
                <ele>491.000000</ele>
                <time>2017-02-12T07:23:40Z</time>
            </trkpt>
            <trkpt lat="47.303961959" lon="4.901736547">
                <ele>497.000000</ele>
                <time>2017-02-12T07:23:56Z</time>
            </trkpt>
            <trkpt lat="47.303953471" lon="4.901612095">
                <ele>503.000000</ele>
                <time>2017-02-12T07:24:17Z</time>
            </trkpt>
            <trkpt lat="47.303928677" lon="4.901462052">
                <ele>510.000000</ele>
                <time>2017-02-12T07:24:38Z</time>
            </trkpt>
            <trkpt lat="47.303833335" lon="4.901449208">
                <ele>511.000000</ele>
                <time>2017-02-12T07:24:58Z</time>
            </trkpt>
            <trkpt lat="47.303766089" lon="4.901437712">
                <ele>512.000000</ele>
                <time>2017-02-12T07:25:14Z</time>
            </trkpt>
            <trkpt lat="47.303654990" lon="4.901374494">
                <ele>515.000000</ele>
                <time>2017-02-12T07:29:16Z</time>
            </trkpt>
            <trkpt lat="47.303537722" lon="4.901335790">
                <ele>518.000000</ele>
                <time>2017-02-12T07:29:37Z</time>
            </trkpt>
            <trkpt lat="47.303392725" lon="4.901279216">
                <ele>521.000000</ele>
                <time>2017-02-12T07:30:04Z</time>
            </trkpt>
            <trkpt lat="47.303264036" lon="4.901248233">
                <ele>524.000000</ele>
                <time>2017-02-12T07:30:26Z</time>
            </trkpt>
            <trkpt lat="47.303168877" lon="4.901227129">
                <ele>525.000000</ele>
                <time>2017-02-12T07:30:41Z</time>
            </trkpt>
            <trkpt lat="47.303046357" lon="4.901171634">
                <ele>529.000000</ele>
                <time>2017-02-12T07:30:56Z</time>
            </trkpt>
            <trkpt lat="47.302934341" lon="4.901149721">
                <ele>530.000000</ele>
                <time>2017-02-12T07:31:11Z</time>
            </trkpt>
            <trkpt lat="47.302800949" lon="4.901077166">
                <ele>533.000000</ele>
            </trkpt>
            <trkpt lat="47.302682810" lon="4.901004396">
                <ele>536.000000</ele>
                <time>2017-02-12T07:31:27Z</time>
            </trkpt>
            <trkpt lat="47.302519782" lon="4.900907334">
                <ele>539.000000</ele>
                <time>2017-02-12T07:31:43Z</time>
            </trkpt>
            <trkpt lat="47.302358095" lon="4.900812618">
                <ele>543.000000</ele>
                <time>2017-02-12T07:32:00Z</time>
            </trkpt>
            <trkpt lat="47.302224822" lon="4.900694098">
                <ele>547.000000</ele>
                <time>2017-02-12T07:32:17Z</time>
            </trkpt>
            <trkpt lat="47.302093646" lon="4.900588738">
                <ele>550.000000</ele>
                <time>2017-02-12T07:32:33Z</time>
            </trkpt>
            <trkpt lat="47.301988369" lon="4.900479773">
                <ele>555.000000</ele>
                <time>2017-02-12T07:32:50Z</time>
            </trkpt>
            <trkpt lat="47.301918212" lon="4.900391428">
                <ele>556.000000</ele>
                <time>2017-02-12T07:33:04Z</time>
            </trkpt>
            <trkpt lat="47.301843781" lon="4.900375754">
                <ele>556.000000</ele>
                <time>2017-02-12T07:33:20Z</time>
            </trkpt>
            <trkpt lat="47.301744372" lon="4.900391679">
                <ele>557.000000</ele>
                <time>2017-02-12T07:33:33Z</time>
            </trkpt>
            <trkpt lat="47.301607687" lon="4.900350113">
                <ele>557.000000</ele>
                <time>2017-02-12T07:33:36Z</time>
            </trkpt>
            <trkpt lat="47.301462139" lon="4.900318326">
                <ele>557.000000</ele>
                <time>2017-02-12T07:33:42Z</time>
            </trkpt>
            <trkpt lat="47.301288130" lon="4.900301712">
                <ele>558.000000</ele>
                <time>2017-02-12T07:34:02Z</time>
            </trkpt>
            <trkpt lat="47.301158393" lon="4.900290091">
                <ele>558.000000</ele>
                <time>2017-02-12T07:34:18Z</time>
            </trkpt>
            <trkpt lat="47.300953036" lon="4.900282379">
                <ele>558.000000</ele>
                <time>2017-02-12T07:34:34Z</time>
            </trkpt>
            <trkpt lat="47.300783324" lon="4.900236158">
                <ele>558.000000</ele>
                <time>2017-02-12T07:34:49Z</time>
            </trkpt>
            <trkpt lat="47.300637594" lon="4.900212631">
                <ele>558.000000</ele>
                <time>2017-02-12T07:35:04Z</time>
            </trkpt>
            <trkpt lat="47.300497115" lon="4.900205895">
                <ele>559.000000</ele>
                <time>2017-02-12T07:35:18Z</time>
            </trkpt>
            <trkpt lat="47.300362440" lon="4.900191168">
                <ele>559.000000</ele>
                <time>2017-02-12T07:35:26Z</time>
            </trkpt>
            <trkpt lat="47.300239002" lon="4.900176980">
                <ele>559.000000</ele>
                <time>2017-02-12T07:35:30Z</time>
            </trkpt>
            <trkpt lat="47.300081850" lon="4.900161175">
                <ele>559.000000</ele>
                <time>2017-02-12T07:35:46Z</time>
            </trkpt>
            <trkpt lat="47.299952610" lon="4.900154978">
                <ele>559.000000</ele>
                <time>2017-02-12T07:35:58Z</time>
            </trkpt>
            <trkpt lat="47.299834424" lon="4.900157580">
                <ele>559.000000</ele>
                <time>2017-02-12T07:36:10Z</time>
            </trkpt>
            <trkpt lat="47.299704818" lon="4.900167903">
                <ele>560.000000</ele>
                <time>2017-02-12T07:36:11Z</time>
            </trkpt>
            <trkpt lat="47.299569959" lon="4.900161436">
                <ele>560.000000</ele>
                <time>2017-02-12T07:36:14Z</time>
            </trkpt>
            <trkpt lat="47.299428747" lon="4.900187741">
                <ele>561.000000</ele>
                <time>2017-02-12T07:36:30Z</time>
            </trkpt>
            <trkpt lat="47.299293503" lon="4.900196213">
                <ele>561.000000</ele>
                <time>2017-02-12T07:36:42Z</time>
            </trkpt>
            <trkpt lat="47.299174603" lon="4.900233437">
                <ele>563.000000</ele>
                <time>2017-02-12T07:36:44Z</time>
            </trkpt>
            <trkpt lat="47.299027956" lon="4.900251212">
                <ele>563.000000</ele>
                <time>2017-02-12T07:36:58Z</time>
            </trkpt>
            <trkpt lat="47.298926628" lon="4.900254622">
                <ele>563.000000</ele>
                <time>2017-02-12T07:37:00Z</time>
            </trkpt>
            <trkpt lat="47.298774728" lon="4.900255606">
                <ele>563.000000</ele>
                <time>2017-02-12T07:37:15Z</time>
            </trkpt>
            <trkpt lat="47.298608366" lon="4.900274752">
                <ele>564.000000</ele>
                <time>2017-02-12T07:37:34Z</time>
            </trkpt>
            <trkpt lat="47.298475631" lon="4.900299146">
                <ele>563.000000</ele>
                <time>2017-02-12T07:37:50Z</time>
            </trkpt>
            <trkpt lat="47.298345291" lon="4.900342508">
                <ele>562.000000</ele>
                <time>2017-02-12T07:37:59Z</time>
            </trkpt>
            <trkpt lat="47.298203713" lon="4.900385332">
                <ele>561.000000</ele>
                <time>2017-02-12T07:38:17Z</time>
            </trkpt>
            <trkpt lat="47.298090780" lon="4.900404723">
                <ele>561.000000</ele>
                <time>2017-02-12T07:38:22Z</time>
            </trkpt>
            <trkpt lat="47.297982917" lon="4.900449163">
                <ele>560.000000</ele>
                <time>2017-02-12T07:38:27Z</time>
            </trkpt>
            <trkpt lat="47.297859862" lon="4.900493939">
                <ele>560.000000</ele>
                <time>2017-02-12T07:38:41Z</time>
            </trkpt>
            <trkpt lat="47.297851648" lon="4.900497794">
                <ele>560.000000</ele>
                <time>2017-02-12T07:38:42Z</time>
            </trkpt>
            <trkpt lat="47.297710815" lon="4.900543607">
                <ele>560.000000</ele>
                <time>2017-02-12T07:38:50Z</time>
            </trkpt>
            <trkpt lat="47.297559623" lon="4.900606340">
                <ele>560.000000</ele>
                <time>2017-02-12T07:39:06Z</time>
            </trkpt>
            <trkpt lat="47.297443599" lon="4.900671359">
                <ele>561.000000</ele>
                <time>2017-02-12T07:39:21Z</time>
            </trkpt>
            <trkpt lat="47.297326103" lon="4.900761489">
                <ele>562.000000</ele>
                <time>2017-02-12T07:39:27Z</time>
            </trkpt>
            <trkpt lat="47.297196267" lon="4.900849331">
                <ele>563.000000</ele>
                <time>2017-02-12T07:39:38Z</time>
            </trkpt>
            <trkpt lat="47.297068611" lon="4.900983693">
                <ele>563.000000</ele>
                <time>2017-02-12T07:39:53Z</time>
            </trkpt>
            <trkpt lat="47.296938272" lon="4.901113110">
                <ele>562.000000</ele>
                <time>2017-02-12T07:40:09Z</time>
            </trkpt>
            <trkpt lat="47.296815729" lon="4.901192822">
                <ele>562.000000</ele>
                <time>2017-02-12T07:40:19Z</time>
            </trkpt>
            <trkpt lat="47.296744680" lon="4.901241444">
                <ele>563.000000</ele>
                <time>2017-02-12T07:40:34Z</time>
            </trkpt>
            <trkpt lat="47.296653491" lon="4.901294949">
                <ele>563.000000</ele>
                <time>2017-02-12T07:40:35Z</time>
            </trkpt>
            <trkpt lat="47.296522784" lon="4.901354828">
                <ele>564.000000</ele>
                <time>2017-02-12T07:40:41Z</time>
            </trkpt>
            <trkpt lat="47.296417672" lon="4.901401531">
                <ele>565.000000</ele>
                <time>2017-02-12T07:40:56Z</time>
            </trkpt>
            <trkpt lat="47.296301070" lon="4.901459950">
                <ele>566.000000</ele>
                <time>2017-02-12T07:41:06Z</time>
            </trkpt>
            <trkpt lat="47.296147519" lon="4.901535269">
                <ele>566.000000</ele>
                <time>2017-02-12T07:41:09Z</time>
            </trkpt>
            <trkpt lat="47.295976928" lon="4.901618038">
                <ele>566.000000</ele>
                <time>2017-02-12T07:41:26Z</time>
            </trkpt>
            <trkpt lat="47.295857092" lon="4.901694973">
                <ele>566.000000</ele>
                <time>2017-02-12T07:41:34Z</time>
            </trkpt>
            <trkpt lat="47.295747944" lon="4.901797225">
                <ele>566.000000</ele>
                <time>2017-02-12T07:41:52Z</time>
            </trkpt>
            <trkpt lat="47.295670258" lon="4.901911737">
                <ele>567.000000</ele>
                <time>2017-02-12T07:42:07Z</time>
            </trkpt>
            <trkpt lat="47.295517860" lon="4.902025968">
                <ele>569.000000</ele>
                <time>2017-02-12T07:42:23Z</time>
            </trkpt>
            <trkpt lat="47.295386785" lon="4.902102362">
                <ele>570.000000</ele>
                <time>2017-02-12T07:42:37Z</time>
            </trkpt>
            <trkpt lat="47.295250459" lon="4.902161968">
                <ele>569.000000</ele>
                <time>2017-02-12T07:42:51Z</time>
            </trkpt>
            <trkpt lat="47.295130439" lon="4.902247160">
                <ele>569.000000</ele>
                <time>2017-02-12T07:43:05Z</time>
            </trkpt>
            <trkpt lat="47.294982140" lon="4.902339263">
                <ele>570.000000</ele>
                <time>2017-02-12T07:43:18Z</time>
            </trkpt>
            <trkpt lat="47.294827855" lon="4.902447614">
                <ele>571.000000</ele>
                <time>2017-02-12T07:43:22Z</time>
            </trkpt>
            <trkpt lat="47.294668134" lon="4.902547436">
                <ele>573.000000</ele>
                <time>2017-02-12T07:43:37Z</time>
            </trkpt>
            <trkpt lat="47.294537610" lon="4.902599050">
                <ele>574.000000</ele>
                <time>2017-02-12T07:43:51Z</time>
            </trkpt>
            <trkpt lat="47.294418874" lon="4.902626424">
                <ele>574.000000</ele>
                <time>2017-02-12T07:44:05Z</time>
            </trkpt>
            <trkpt lat="47.294294519" lon="4.902653529">
                <ele>574.000000</ele>
                <time>2017-02-12T07:44:20Z</time>
            </trkpt>
            <trkpt lat="47.294153124" lon="4.902688084">
                <ele>575.000000</ele>
                <time>2017-02-12T07:44:33Z</time>
            </trkpt>
            <trkpt lat="47.294027484" lon="4.902773003">
                <ele>575.000000</ele>
                <time>2017-02-12T07:44:35Z</time>
            </trkpt>
            <trkpt lat="47.293862030" lon="4.902857216">
                <ele>574.000000</ele>
                <time>2017-02-12T07:44:41Z</time>
            </trkpt>
            <trkpt lat="47.293737422" lon="4.902916175">
                <ele>574.000000</ele>
                <time>2017-02-12T07:44:50Z</time>
            </trkpt>
            <trkpt lat="47.293558186" lon="4.902967606">
                <ele>574.000000</ele>
                <time>2017-02-12T07:45:05Z</time>
            </trkpt>
            <trkpt lat="47.293388669" lon="4.902915972">
                <ele>572.000000</ele>
                <time>2017-02-12T07:45:19Z</time>
            </trkpt>
            <trkpt lat="47.293226081" lon="4.902891633">
                <ele>570.000000</ele>
                <time>2017-02-12T07:45:33Z</time>
            </trkpt>
            <trkpt lat="47.293085419" lon="4.902893149">
                <ele>570.000000</ele>
            </trkpt>
            <trkpt lat="47.292904322" lon="4.902942333">
                <ele>571.000000</ele>
                <time>2017-02-12T07:45:49Z</time>
            </trkpt>
            <trkpt lat="47.292778682" lon="4.903027250">
                <ele>572.000000</ele>
                <time>2017-02-12T07:46:05Z</time>
            </trkpt>
            <trkpt lat="47.292640887" lon="4.903152923">
                <ele>574.000000</ele>
                <time>2017-02-12T07:46:22Z</time>
            </trkpt>
            <trkpt lat="47.292513779" lon="4.903303912">
                <ele>577.000000</ele>
            </trkpt>
            <trkpt lat="47.292375433" lon="4.903454360">
                <ele>576.000000</ele>
                <time>2017-02-12T07:46:38Z</time>
            </trkpt>
            <trkpt lat="47.292275000" lon="4.903604295">
                <ele>576.000000</ele>
                <time>2017-02-12T07:46:51Z</time>
            </trkpt>
            <trkpt lat="47.292166353" lon="4.903750233">
                <ele>575.000000</ele>
                <time>2017-02-12T07:47:06Z</time>
            </trkpt>
            <trkpt lat="47.292050850" lon="4.903885241">
                <ele>575.000000</ele>
                <time>2017-02-12T07:47:18Z</time>
            </trkpt>
            <trkpt lat="47.291950956" lon="4.903955664">
                <ele>573.000000</ele>
                <time>2017-02-12T07:47:25Z</time>
            </trkpt>
            <trkpt lat="47.291882476" lon="4.903992377">
                <ele>572.000000</ele>
                <time>2017-02-12T07:47:30Z</time>
            </trkpt>
            <trkpt lat="47.291783263" lon="4.904029481">
                <ele>569.000000</ele>
                <time>2017-02-12T07:47:34Z</time>
            </trkpt>
            <trkpt lat="47.291641161" lon="4.904044261">
                <ele>567.000000</ele>
                <time>2017-02-12T07:47:48Z</time>
            </trkpt>
            <trkpt lat="47.291519714" lon="4.903992023">
                <ele>568.000000</ele>
                <time>2017-02-12T07:47:53Z</time>
            </trkpt>
            <trkpt lat="47.291431027" lon="4.903956419">
                <ele>568.000000</ele>
                <time>2017-02-12T07:48:04Z</time>
            </trkpt>
            <trkpt lat="47.291302954" lon="4.903874135">
                <ele>569.000000</ele>
                <time>2017-02-12T07:48:19Z</time>
            </trkpt>
            <trkpt lat="47.291180618" lon="4.903810387">
                <ele>568.000000</ele>
                <time>2017-02-12T07:48:33Z</time>
            </trkpt>
            <trkpt lat="47.291030737" lon="4.903720515">
                <ele>567.000000</ele>
            </trkpt>
            <trkpt lat="47.290897162" lon="4.903656228">
                <ele>566.000000</ele>
                <time>2017-02-12T07:48:48Z</time>
            </trkpt>
            <trkpt lat="47.290809642" lon="4.903544547">
                <ele>565.000000</ele>
                <time>2017-02-12T07:49:01Z</time>
            </trkpt>
            <trkpt lat="47.290728475" lon="4.903400101">
                <ele>564.000000</ele>
                <time>2017-02-12T07:49:17Z</time>
            </trkpt>
            <trkpt lat="47.290594716" lon="4.903344075">
                <ele>563.000000</ele>
                <time>2017-02-12T07:49:39Z</time>
            </trkpt>
            <trkpt lat="47.290432128" lon="4.903319735">
                <ele>561.000000</ele>
                <time>2017-02-12T07:49:50Z</time>
            </trkpt>
            <trkpt lat="47.290308507" lon="4.903313801">
                <ele>560.000000</ele>
                <time>2017-02-12T07:49:55Z</time>
            </trkpt>
            <trkpt lat="47.290213349" lon="4.903292698">
                <ele>560.000000</ele>
                <time>2017-02-12T07:50:12Z</time>
            </trkpt>
            <trkpt lat="47.290074155" lon="4.903228144">
                <ele>559.000000</ele>
                <time>2017-02-12T07:50:15Z</time>
            </trkpt>
            <trkpt lat="47.289978813" lon="4.903215301">
                <ele>558.000000</ele>
                <time>2017-02-12T07:50:19Z</time>
            </trkpt>
            <trkpt lat="47.289806455" lon="4.903124353">
                <ele>555.000000</ele>
                <time>2017-02-12T07:50:34Z</time>
            </trkpt>
            <trkpt lat="47.289626459" lon="4.903123981">
                <ele>553.000000</ele>
                <time>2017-02-12T07:50:48Z</time>
            </trkpt>
            <trkpt lat="47.289447196" lon="4.903090575">
                <ele>551.000000</ele>
                <time>2017-02-12T07:51:01Z</time>
            </trkpt>
            <trkpt lat="47.289261581" lon="4.903089933">
                <ele>549.000000</ele>
                <time>2017-02-12T07:51:19Z</time>
            </trkpt>
            <trkpt lat="47.289076149" lon="4.903081033">
                <ele>547.000000</ele>
                <time>2017-02-12T07:51:32Z</time>
            </trkpt>
            <trkpt lat="47.288935854" lon="4.903066032">
                <ele>545.000000</ele>
                <time>2017-02-12T07:51:47Z</time>
            </trkpt>
            <trkpt lat="47.288795376" lon="4.903059290">
                <ele>544.000000</ele>
                <time>2017-02-12T07:52:02Z</time>
            </trkpt>
            <trkpt lat="47.288656182" lon="4.902994738">
                <ele>542.000000</ele>
                <time>2017-02-12T07:52:07Z</time>
            </trkpt>
            <trkpt lat="47.288528042" lon="4.902938985">
                <ele>541.000000</ele>
                <time>2017-02-12T07:52:19Z</time>
            </trkpt>
            <trkpt lat="47.288377610" lon="4.902873894">
                <ele>540.000000</ele>
                <time>2017-02-12T07:52:34Z</time>
            </trkpt>
            <trkpt lat="47.288215755" lon="4.902816523">
                <ele>540.000000</ele>
                <time>2017-02-12T07:52:46Z</time>
            </trkpt>
            <trkpt lat="47.288065873" lon="4.902726658">
                <ele>539.000000</ele>
                <time>2017-02-12T07:53:00Z</time>
            </trkpt>
            <trkpt lat="47.287927229" lon="4.902637333">
                <ele>539.000000</ele>
                <time>2017-02-12T07:53:16Z</time>
            </trkpt>
            <trkpt lat="47.287805810" lon="4.902532301">
                <ele>540.000000</ele>
                <time>2017-02-12T07:53:30Z</time>
            </trkpt>
            <trkpt lat="47.287690376" lon="4.902411022">
                <ele>541.000000</ele>
                <time>2017-02-12T07:53:31Z</time>
            </trkpt>
            <trkpt lat="47.287540126" lon="4.902337675">
                <ele>541.000000</ele>
                <time>2017-02-12T07:53:34Z</time>
            </trkpt>
            <trkpt lat="47.287412720" lon="4.902248891">
                <ele>541.000000</ele>
                <time>2017-02-12T07:53:49Z</time>
            </trkpt>
            <trkpt lat="47.287273159" lon="4.902200860">
                <ele>541.000000</ele>
                <time>2017-02-12T07:54:01Z</time>
            </trkpt>
            <trkpt lat="47.287167129" lon="4.902162705">
                <ele>541.000000</ele>
                <time>2017-02-12T07:54:05Z</time>
            </trkpt>
            <trkpt lat="47.287016696" lon="4.902097618">
                <ele>542.000000</ele>
                <time>2017-02-12T07:54:22Z</time>
            </trkpt>
            <trkpt lat="47.286895092" lon="4.902000847">
                <ele>542.000000</ele>
                <time>2017-02-12T07:54:32Z</time>
            </trkpt>
            <trkpt lat="47.286795415" lon="4.901929929">
                <ele>542.000000</ele>
                <time>2017-02-12T07:54:34Z</time>
            </trkpt>
            <trkpt lat="47.286673995" lon="4.901824900">
                <ele>542.000000</ele>
                <time>2017-02-12T07:54:53Z</time>
            </trkpt>
            <trkpt lat="47.286567964" lon="4.901786746">
                <ele>543.000000</ele>
                <time>2017-02-12T07:54:55Z</time>
            </trkpt>
            <trkpt lat="47.286456498" lon="4.901740064">
                <ele>544.000000</ele>
                <time>2017-02-12T07:54:59Z</time>
            </trkpt>
            <trkpt lat="47.286288474" lon="4.901707204">
                <ele>545.000000</ele>
                <time>2017-02-12T07:55:14Z</time>
            </trkpt>
            <trkpt lat="47.286082032" lon="4.901631166">
                <ele>545.000000</ele>
                <time>2017-02-12T07:55:31Z</time>
            </trkpt>
            <trkpt lat="47.285903320" lon="4.901572993">
                <ele>544.000000</ele>
                <time>2017-02-12T07:55:47Z</time>
            </trkpt>
            <trkpt lat="47.285753253" lon="4.901491393">
                <ele>543.000000</ele>
                <time>2017-02-12T07:56:03Z</time>
            </trkpt>
            <trkpt lat="47.285580893" lon="4.901400458">
                <ele>542.000000</ele>
                <time>2017-02-12T07:56:16Z</time>
            </trkpt>
            <trkpt lat="47.285419222" lon="4.901334837">
                <ele>541.000000</ele>
                <time>2017-02-12T07:56:31Z</time>
            </trkpt>
            <trkpt lat="47.285285095" lon="4.901295337">
                <ele>541.000000</ele>
                <time>2017-02-12T07:56:46Z</time>
            </trkpt>
            <trkpt lat="47.285151152" lon="4.901247580">
                <ele>541.000000</ele>
                <time>2017-02-12T07:57:00Z</time>
            </trkpt>
            <trkpt lat="47.284982944" lon="4.901222979">
                <ele>540.000000</ele>
                <time>2017-02-12T07:57:12Z</time>
            </trkpt>
            <trkpt lat="47.284878564" lon="4.901110506">
                <ele>540.000000</ele>
                <time>2017-02-12T07:57:27Z</time>
            </trkpt>
            <trkpt lat="47.284762946" lon="4.900997495">
                <ele>541.000000</ele>
                <time>2017-02-12T07:57:43Z</time>
            </trkpt>
            <trkpt lat="47.284692097" lon="4.900894897">
                <ele>541.000000</ele>
                <time>2017-02-12T07:57:48Z</time>
            </trkpt>
            <trkpt lat="47.284536960" lon="4.900788258">
                <ele>540.000000</ele>
            </trkpt>
            <trkpt lat="47.284358981" lon="4.900697058">
                <ele>540.000000</ele>
                <time>2017-02-12T07:58:04Z</time>
            </trkpt>
            <trkpt lat="47.284249897" lon="4.900543029">
                <ele>540.000000</ele>
                <time>2017-02-12T07:58:20Z</time>
            </trkpt>
            <trkpt lat="47.284147716" lon="4.900331465">
                <ele>540.000000</ele>
            </trkpt>
            <trkpt lat="47.283996245" lon="4.900059674">
                <ele>539.000000</ele>
                <time>2017-02-12T07:58:38Z</time>
            </trkpt>
            <trkpt lat="47.283880259" lon="4.899963182">
                <ele>539.000000</ele>
                <time>2017-02-12T07:58:56Z</time>
            </trkpt>
            <trkpt lat="47.283713150" lon="4.899889040">
                <ele>539.000000</ele>
                <time>2017-02-12T07:59:11Z</time>
            </trkpt>
            <trkpt lat="47.283571634" lon="4.899675594">
                <ele>539.000000</ele>
                <time>2017-02-12T07:59:24Z</time>
            </trkpt>
            <trkpt lat="47.283468718" lon="4.899497066">
                <ele>539.000000</ele>
                <time>2017-02-12T07:59:40Z</time>
            </trkpt>
            <trkpt lat="47.283353647" lon="4.899359288">
                <ele>537.000000</ele>
                <time>2017-02-12T07:59:57Z</time>
            </trkpt>
            <trkpt lat="47.283254518" lon="4.899263607">
                <ele>537.000000</ele>
                <time>2017-02-12T08:00:12Z</time>
            </trkpt>
            <trkpt lat="47.283082706" lon="4.899147910">
                <ele>538.000000</ele>
                <time>2017-02-12T08:00:36Z</time>
            </trkpt>
            <trkpt lat="47.282970689" lon="4.899126010">
                <ele>539.000000</ele>
                <time>2017-02-12T08:00:52Z</time>
            </trkpt>
            <trkpt lat="47.282836379" lon="4.899094775">
                <ele>540.000000</ele>
                <time>2017-02-12T08:01:05Z</time>
            </trkpt>
            <trkpt lat="47.282667437" lon="4.899103213">
                <ele>540.000000</ele>
                <time>2017-02-12T08:01:12Z</time>
            </trkpt>
            <trkpt lat="47.282518102" lon="4.898988595">
                <ele>540.000000</ele>
                <time>2017-02-12T08:01:21Z</time>
            </trkpt>
            <trkpt lat="47.282436745" lon="4.898852436">
                <ele>540.000000</ele>
                <time>2017-02-12T08:01:36Z</time>
            </trkpt>
            <trkpt lat="47.282361741" lon="4.898683516">
                <ele>539.000000</ele>
                <time>2017-02-12T08:01:39Z</time>
            </trkpt>
            <trkpt lat="47.282320268" lon="4.898524469">
                <ele>539.000000</ele>
                <time>2017-02-12T08:01:47Z</time>
            </trkpt>
            <trkpt lat="47.282278429" lon="4.898381938">
                <ele>539.000000</ele>
            </trkpt>
            <trkpt lat="47.282187299" lon="4.898179182">
                <ele>539.000000</ele>
                <time>2017-02-12T08:02:03Z</time>
            </trkpt>
            <trkpt lat="47.282022203" lon="4.898014216">
                <ele>539.000000</ele>
                <time>2017-02-12T08:02:19Z</time>
            </trkpt>
            <trkpt lat="47.281861994" lon="4.897882549">
                <ele>538.000000</ele>
                <time>2017-02-12T08:02:35Z</time>
            </trkpt>
            <trkpt lat="47.281746556" lon="4.897761293">
                <ele>538.000000</ele>
                <time>2017-02-12T08:02:49Z</time>
            </trkpt>
            <trkpt lat="47.281636736" lon="4.897640308">
                <ele>538.000000</ele>
                <time>2017-02-12T08:03:03Z</time>
            </trkpt>
            <trkpt lat="47.281533451" lon="4.897478304">
                <ele>537.000000</ele>
                <time>2017-02-12T08:03:17Z</time>
            </trkpt>
            <trkpt lat="47.281430531" lon="4.897299787">
                <ele>537.000000</ele>
                <time>2017-02-12T08:03:32Z</time>
            </trkpt>
            <trkpt lat="47.281372565" lon="4.897123422">
                <ele>537.000000</ele>
                <time>2017-02-12T08:03:40Z</time>
            </trkpt>
            <trkpt lat="47.281281982" lon="4.896895899">
                <ele>537.000000</ele>
                <time>2017-02-12T08:03:58Z</time>
            </trkpt>
            <trkpt lat="47.281211130" lon="4.896793314">
                <ele>537.000000</ele>
                <time>2017-02-12T08:04:16Z</time>
            </trkpt>
            <trkpt lat="47.281088972" lon="4.896721337">
                <ele>537.000000</ele>
                <time>2017-02-12T08:04:27Z</time>
            </trkpt>
            <trkpt lat="47.280990573" lon="4.896592636">
                <ele>537.000000</ele>
                <time>2017-02-12T08:04:44Z</time>
            </trkpt>
            <trkpt lat="47.280851375" lon="4.896528110">
                <ele>538.000000</ele>
                <time>2017-02-12T08:04:46Z</time>
            </trkpt>
            <trkpt lat="47.280706008" lon="4.896488088">
                <ele>538.000000</ele>
                <time>2017-02-12T08:05:02Z</time>
            </trkpt>
            <trkpt lat="47.280607059" lon="4.896384160">
                <ele>538.000000</ele>
                <time>2017-02-12T08:05:19Z</time>
            </trkpt>
            <trkpt lat="47.280507927" lon="4.896288489">
                <ele>538.000000</ele>
                <time>2017-02-12T08:05:35Z</time>
            </trkpt>
            <trkpt lat="47.280403359" lon="4.896184292">
                <ele>538.000000</ele>
                <time>2017-02-12T08:05:49Z</time>
            </trkpt>
            <trkpt lat="47.280309663" lon="4.896097148">
                <ele>538.000000</ele>
                <time>2017-02-12T08:06:05Z</time>
            </trkpt>
            <trkpt lat="47.280204180" lon="4.896034238">
                <ele>537.000000</ele>
                <time>2017-02-12T08:06:18Z</time>
            </trkpt>
            <trkpt lat="47.280143833" lon="4.895965222">
                <ele>536.000000</ele>
                <time>2017-02-12T08:06:20Z</time>
            </trkpt>
            <trkpt lat="47.279998466" lon="4.895925202">
                <ele>535.000000</ele>
                <time>2017-02-12T08:06:25Z</time>
            </trkpt>
            <trkpt lat="47.279886815" lon="4.895886796">
                <ele>534.000000</ele>
                <time>2017-02-12T08:06:35Z</time>
            </trkpt>
            <trkpt lat="47.279763559" lon="4.895864366">
                <ele>533.000000</ele>
                <time>2017-02-12T08:06:38Z</time>
            </trkpt>
            <trkpt lat="47.279633952" lon="4.895874695">
                <ele>532.000000</ele>
                <time>2017-02-12T08:06:53Z</time>
            </trkpt>
            <trkpt lat="47.279475334" lon="4.895924966">
                <ele>531.000000</ele>
                <time>2017-02-12T08:06:58Z</time>
            </trkpt>
            <trkpt lat="47.279321786" lon="4.896000277">
                <ele>531.000000</ele>
                <time>2017-02-12T08:07:14Z</time>
            </trkpt>
            <trkpt lat="47.279196517" lon="4.896068674">
                <ele>531.000000</ele>
                <time>2017-02-12T08:07:27Z</time>
            </trkpt>
            <trkpt lat="47.279035886" lon="4.896209771">
                <ele>530.000000</ele>
                <time>2017-02-12T08:07:37Z</time>
            </trkpt>
            <trkpt lat="47.278886676" lon="4.896343148">
                <ele>529.000000</ele>
                <time>2017-02-12T08:07:56Z</time>
            </trkpt>
            <trkpt lat="47.278755422" lon="4.896427790">
                <ele>527.000000</ele>
                <time>2017-02-12T08:08:09Z</time>
            </trkpt>
            <trkpt lat="47.278658797" lon="4.896472759">
                <ele>526.000000</ele>
                <time>2017-02-12T08:08:23Z</time>
            </trkpt>
            <trkpt lat="47.278529373" lon="4.896474831">
                <ele>524.000000</ele>
                <time>2017-02-12T08:08:37Z</time>
            </trkpt>
            <trkpt lat="47.278399400" lon="4.896501672">
                <ele>523.000000</ele>
                <time>2017-02-12T08:08:51Z</time>
            </trkpt>
            <trkpt lat="47.278246035" lon="4.896568723">
                <ele>523.000000</ele>
                <time>2017-02-12T08:09:07Z</time>
            </trkpt>
            <trkpt lat="47.278115146" lon="4.896636849">
                <ele>522.000000</ele>
                <time>2017-02-12T08:09:17Z</time>
            </trkpt>
            <trkpt lat="47.277977907" lon="4.896737733">
                <ele>520.000000</ele>
                <time>2017-02-12T08:09:34Z</time>
            </trkpt>
            <trkpt lat="47.277874565" lon="4.896831974">
                <ele>518.000000</ele>
                <time>2017-02-12T08:09:49Z</time>
            </trkpt>
            <trkpt lat="47.277753999" lon="4.896941920">
                <ele>516.000000</ele>
                <time>2017-02-12T08:09:59Z</time>
            </trkpt>
            <trkpt lat="47.277624758" lon="4.896935734">
                <ele>514.000000</ele>
                <time>2017-02-12T08:10:06Z</time>
            </trkpt>
            <trkpt lat="47.277512740" lon="4.896913840">
                <ele>513.000000</ele>
                <time>2017-02-12T08:10:15Z</time>
            </trkpt>
            <trkpt lat="47.277383682" lon="4.896899397">
                <ele>511.000000</ele>
                <time>2017-02-12T08:10:23Z</time>
            </trkpt>
            <trkpt lat="47.277260243" lon="4.896885222">
                <ele>510.000000</ele>
                <time>2017-02-12T08:14:16Z</time>
            </trkpt>
            <trkpt lat="47.277097470" lon="4.896869165">
                <ele>509.000000</ele>
                <time>2017-02-12T08:14:30Z</time>
            </trkpt>
            <trkpt lat="47.276963708" lon="4.896813169">
                <ele>509.000000</ele>
                <time>2017-02-12T08:14:45Z</time>
            </trkpt>
            <trkpt lat="47.276834101" lon="4.896823496">
                <ele>508.000000</ele>
                <time>2017-02-12T08:15:00Z</time>
            </trkpt>
            <trkpt lat="47.276710662" lon="4.896809322">
                <ele>508.000000</ele>
                <time>2017-02-12T08:15:17Z</time>
            </trkpt>
            <trkpt lat="47.276575069" lon="4.896835893">
                <ele>508.000000</ele>
                <time>2017-02-12T08:15:20Z</time>
            </trkpt>
            <trkpt lat="47.276455785" lon="4.896888041">
                <ele>507.000000</ele>
                <time>2017-02-12T08:15:22Z</time>
            </trkpt>
            <trkpt lat="47.276331248" lon="4.896923406">
                <ele>507.000000</ele>
                <time>2017-02-12T08:15:36Z</time>
            </trkpt>
            <trkpt lat="47.276206344" lon="4.896975285">
                <ele>506.000000</ele>
                <time>2017-02-12T08:15:58Z</time>
            </trkpt>
            <trkpt lat="47.276092313" lon="4.897044214">
                <ele>506.000000</ele>
                <time>2017-02-12T08:16:01Z</time>
            </trkpt>
            <trkpt lat="47.275956776" lon="4.897062639">
                <ele>506.000000</ele>
                <time>2017-02-12T08:16:20Z</time>
            </trkpt>
            <trkpt lat="47.275944371" lon="4.896973791">
                <ele>506.000000</ele>
                <time>2017-02-12T08:16:26Z</time>
            </trkpt>
            <trkpt lat="47.275905471" lon="4.896845168">
                <ele>506.000000</ele>
                <time>2017-02-12T08:16:44Z</time>
            </trkpt>
            <trkpt lat="47.275846772" lon="4.896701848">
                <ele>506.000000</ele>
                <time>2017-02-12T08:17:02Z</time>
            </trkpt>
            <trkpt lat="47.275718629" lon="4.896646123">
                <ele>506.000000</ele>
                <time>2017-02-12T08:17:03Z</time>
            </trkpt>
            <trkpt lat="47.275590853" lon="4.896573885">
                <ele>506.000000</ele>
                <time>2017-02-12T08:17:08Z</time>
            </trkpt>
            <trkpt lat="47.275495509" lon="4.896561057">
                <ele>506.000000</ele>
                <time>2017-02-12T08:17:23Z</time>
            </trkpt>
            <trkpt lat="47.275377690" lon="4.896547152">
                <ele>506.000000</ele>
                <time>2017-02-12T08:17:25Z</time>
            </trkpt>
            <trkpt lat="47.275236478" lon="4.896573454">
                <ele>506.000000</ele>
                <time>2017-02-12T08:17:35Z</time>
            </trkpt>
            <trkpt lat="47.275107054" lon="4.896575525">
                <ele>506.000000</ele>
                <time>2017-02-12T08:17:42Z</time>
            </trkpt>
            <trkpt lat="47.274960223" lon="4.896601558">
                <ele>505.000000</ele>
                <time>2017-02-12T08:17:58Z</time>
            </trkpt>
            <trkpt lat="47.274818279" lon="4.896660886">
                <ele>505.000000</ele>
                <time>2017-02-12T08:18:15Z</time>
            </trkpt>
            <trkpt lat="47.274715669" lon="4.896722095">
                <ele>506.000000</ele>
                <time>2017-02-12T08:18:21Z</time>
            </trkpt>
            <trkpt lat="47.274567923" lon="4.896789410">
                <ele>506.000000</ele>
                <time>2017-02-12T08:18:30Z</time>
            </trkpt>
            <trkpt lat="47.274460243" lon="4.896825581">
                <ele>506.000000</ele>
                <time>2017-02-12T08:18:44Z</time>
            </trkpt>
            <trkpt lat="47.274307609" lon="4.896859600">
                <ele>509.000000</ele>
                <time>2017-02-12T08:19:01Z</time>
            </trkpt>
            <trkpt lat="47.274176355" lon="4.896944233">
                <ele>510.000000</ele>
                <time>2017-02-12T08:19:15Z</time>
            </trkpt>
            <trkpt lat="47.274038931" lon="4.897053365">
                <ele>512.000000</ele>
                <time>2017-02-12T08:19:32Z</time>
            </trkpt>
            <trkpt lat="47.273896071" lon="4.897153972">
                <ele>514.000000</ele>
                <time>2017-02-12T08:19:43Z</time>
            </trkpt>
            <trkpt lat="47.273736171" lon="4.897262027">
                <ele>515.000000</ele>
                <time>2017-02-12T08:19:58Z</time>
            </trkpt>
            <trkpt lat="47.273626477" lon="4.897389014">
                <ele>516.000000</ele>
                <time>2017-02-12T08:20:15Z</time>
            </trkpt>
            <trkpt lat="47.273492841" lon="4.897580975">
                <ele>517.000000</ele>
                <time>2017-02-12T08:20:32Z</time>
            </trkpt>
            <trkpt lat="47.273387851" lon="4.897749511">
                <ele>518.000000</ele>
                <time>2017-02-12T08:20:49Z</time>
            </trkpt>
            <trkpt lat="47.273242976" lon="4.897940932">
                <ele>519.000000</ele>
                <time>2017-02-12T08:21:06Z</time>
            </trkpt>
            <trkpt lat="47.273143421" lon="4.898117992">
                <ele>519.000000</ele>
                <time>2017-02-12T08:21:24Z</time>
            </trkpt>
            <trkpt lat="47.273021938" lon="4.898269207">
                <ele>521.000000</ele>
                <time>2017-02-12T08:21:42Z</time>
            </trkpt>
            <trkpt lat="47.272911510" lon="4.898429215">
                <ele>522.000000</ele>
                <time>2017-02-12T08:21:43Z</time>
            </trkpt>
            <trkpt lat="47.272829544" lon="4.898574057">
                <ele>523.000000</ele>
                <time>2017-02-12T08:22:01Z</time>
            </trkpt>
            <trkpt lat="47.272735974" lon="4.898734871">
                <ele>523.000000</ele>
                <time>2017-02-12T08:22:18Z</time>
            </trkpt>
            <trkpt lat="47.272630615" lon="4.898919915">
                <ele>524.000000</ele>
                <time>2017-02-12T08:22:33Z</time>
            </trkpt>
            <trkpt lat="47.272537227" lon="4.899072473">
                <ele>525.000000</ele>
                <time>2017-02-12T08:22:40Z</time>
            </trkpt>
            <trkpt lat="47.272427164" lon="4.899215966">
                <ele>527.000000</ele>
                <time>2017-02-12T08:22:57Z</time>
            </trkpt>
            <trkpt lat="47.272294442" lon="4.899366638">
                <ele>528.000000</ele>
                <time>2017-02-12T08:23:14Z</time>
            </trkpt>
            <trkpt lat="47.272161902" lon="4.899509053">
                <ele>530.000000</ele>
                <time>2017-02-12T08:23:28Z</time>
            </trkpt>
            <trkpt lat="47.272007802" lon="4.899609111">
                <ele>532.000000</ele>
                <time>2017-02-12T08:23:43Z</time>
            </trkpt>
            <trkpt lat="47.271881981" lon="4.899702258">
                <ele>534.000000</ele>
                <time>2017-02-12T08:24:00Z</time>
            </trkpt>
            <trkpt lat="47.271750540" lon="4.899795136">
                <ele>536.000000</ele>
                <time>2017-02-12T08:24:16Z</time>
            </trkpt>
            <trkpt lat="47.271630705" lon="4.899872040">
                <ele>537.000000</ele>
                <time>2017-02-12T08:24:30Z</time>
            </trkpt>
            <trkpt lat="47.271516671" lon="4.899940957">
                <ele>538.000000</ele>
                <time>2017-02-12T08:24:46Z</time>
            </trkpt>
            <trkpt lat="47.271391217" lon="4.900017592">
                <ele>538.000000</ele>
                <time>2017-02-12T08:24:58Z</time>
            </trkpt>
            <trkpt lat="47.271248721" lon="4.900101674">
                <ele>539.000000</ele>
                <time>2017-02-12T08:25:00Z</time>
            </trkpt>
            <trkpt lat="47.271123632" lon="4.900161795">
                <ele>540.000000</ele>
                <time>2017-02-12T08:25:16Z</time>
            </trkpt>
            <trkpt lat="47.271015585" lon="4.900214469">
                <ele>540.000000</ele>
                <time>2017-02-12T08:25:30Z</time>
            </trkpt>
            <trkpt lat="47.270890313" lon="4.900282846">
                <ele>540.000000</ele>
                <time>2017-02-12T08:25:44Z</time>
            </trkpt>
            <trkpt lat="47.270759056" lon="4.900367465">
                <ele>540.000000</ele>
                <time>2017-02-12T08:25:45Z</time>
            </trkpt>
            <trkpt lat="47.270638853" lon="4.900460878">
                <ele>539.000000</ele>
                <time>2017-02-12T08:25:48Z</time>
            </trkpt>
            <trkpt lat="47.270502159" lon="4.900536971">
                <ele>538.000000</ele>
                <time>2017-02-12T08:26:01Z</time>
            </trkpt>
            <trkpt lat="47.270361496" lon="4.900538494">
                <ele>538.000000</ele>
                <time>2017-02-12T08:26:16Z</time>
            </trkpt>
            <trkpt lat="47.270237874" lon="4.900532568">
                <ele>539.000000</ele>
                <time>2017-02-12T08:26:17Z</time>
            </trkpt>
            <trkpt lat="47.270058244" lon="4.900515694">
                <ele>540.000000</ele>
                <time>2017-02-12T08:26:33Z</time>
            </trkpt>
            <trkpt lat="47.269906342" lon="4.900516678">
                <ele>540.000000</ele>
                <time>2017-02-12T08:26:52Z</time>
            </trkpt>
            <trkpt lat="47.269737950" lon="4.900500342">
                <ele>542.000000</ele>
                <time>2017-02-12T08:26:59Z</time>
            </trkpt>
            <trkpt lat="47.269574627" lon="4.900509043">
                <ele>543.000000</ele>
                <time>2017-02-12T08:27:17Z</time>
            </trkpt>
            <trkpt lat="47.269445936" lon="4.900478082">
                <ele>544.000000</ele>
                <time>2017-02-12T08:27:31Z</time>
            </trkpt>
            <trkpt lat="47.269306373" lon="4.900430071">
                <ele>546.000000</ele>
                <time>2017-02-12T08:27:49Z</time>
            </trkpt>
            <trkpt lat="47.269194722" lon="4.900391663">
                <ele>547.000000</ele>
            </trkpt>
            <trkpt lat="47.269072017" lon="4.900344460">
                <ele>548.000000</ele>
            </trkpt>
            <trkpt lat="47.268893119" lon="4.900294565">
                <ele>549.000000</ele>
                <time>2017-02-12T08:28:01Z</time>
            </trkpt>
            <trkpt lat="47.268740041" lon="4.900240302">
                <ele>550.000000</ele>
                <time>2017-02-12T08:28:15Z</time>
            </trkpt>
            <trkpt lat="47.268588077" lon="4.900165871">
                <ele>551.000000</ele>
                <time>2017-02-12T08:28:29Z</time>
            </trkpt>
            <trkpt lat="47.268405352" lon="4.900065539">
                <ele>551.000000</ele>
                <time>2017-02-12T08:28:45Z</time>
            </trkpt>
            <trkpt lat="47.268236470" lon="4.899973851">
                <ele>551.000000</ele>
                <time>2017-02-12T08:29:01Z</time>
            </trkpt>
            <trkpt lat="47.268086035" lon="4.899908794">
                <ele>551.000000</ele>
                <time>2017-02-12T08:29:18Z</time>
            </trkpt>
            <trkpt lat="47.267952457" lon="4.899844544">
                <ele>550.000000</ele>
                <time>2017-02-12T08:29:35Z</time>
            </trkpt>
            <trkpt lat="47.267790784" lon="4.899778949">
                <ele>550.000000</ele>
            </trkpt>
            <trkpt lat="47.267628377" lon="4.899746375">
                <ele>549.000000</ele>
                <time>2017-02-12T08:29:50Z</time>
            </trkpt>
            <trkpt lat="47.267472139" lon="4.899689305">
                <ele>549.000000</ele>
                <time>2017-02-12T08:30:02Z</time>
            </trkpt>
            <trkpt lat="47.267326957" lon="4.899641029">
                <ele>548.000000</ele>
                <time>2017-02-12T08:30:19Z</time>
            </trkpt>
            <trkpt lat="47.267204067" lon="4.899602086">
                <ele>548.000000</ele>
                <time>2017-02-12T08:30:35Z</time>
            </trkpt>
            <trkpt lat="47.267052716" lon="4.899578306">
                <ele>548.000000</ele>
                <time>2017-02-12T08:30:48Z</time>
            </trkpt>
            <trkpt lat="47.266901547" lon="4.899546272">
                <ele>548.000000</ele>
                <time>2017-02-12T08:30:53Z</time>
            </trkpt>
            <trkpt lat="47.266761067" lon="4.899539542">
                <ele>548.000000</ele>
                <time>2017-02-12T08:31:08Z</time>
            </trkpt>
            <trkpt lat="47.266620404" lon="4.899541066">
                <ele>547.000000</ele>
                <time>2017-02-12T08:31:29Z</time>
            </trkpt>
            <trkpt lat="47.266496782" lon="4.899535144">
                <ele>547.000000</ele>
                <time>2017-02-12T08:31:44Z</time>
            </trkpt>
            <trkpt lat="47.266384581" lon="4.899521505">
                <ele>548.000000</ele>
                <time>2017-02-12T08:32:12Z</time>
            </trkpt>
            <trkpt lat="47.266227611" lon="4.899497457">
                <ele>548.000000</ele>
            </trkpt>
            <trkpt lat="47.266098369" lon="4.899491265">
                <ele>548.000000</ele>
                <time>2017-02-12T08:32:27Z</time>
            </trkpt>
            <trkpt lat="47.265963325" lon="4.899493059">
                <ele>548.000000</ele>
                <time>2017-02-12T08:32:33Z</time>
            </trkpt>
            <trkpt lat="47.265839703" lon="4.899487137">
                <ele>548.000000</ele>
                <time>2017-02-12T08:32:47Z</time>
            </trkpt>
            <trkpt lat="47.265710828" lon="4.899464435">
                <ele>548.000000</ele>
                <time>2017-02-12T08:33:05Z</time>
            </trkpt>
            <trkpt lat="47.265570165" lon="4.899465960">
                <ele>547.000000</ele>
                <time>2017-02-12T08:33:19Z</time>
            </trkpt>
            <trkpt lat="47.265429502" lon="4.899467485">
                <ele>546.000000</ele>
            </trkpt>
            <trkpt lat="47.265294824" lon="4.899452769">
                <ele>546.000000</ele>
                <time>2017-02-12T08:33:35Z</time>
            </trkpt>
            <trkpt lat="47.265165949" lon="4.899430068">
                <ele>545.000000</ele>
                <time>2017-02-12T08:33:40Z</time>
            </trkpt>
            <trkpt lat="47.265031821" lon="4.899390588">
                <ele>545.000000</ele>
                <time>2017-02-12T08:33:53Z</time>
            </trkpt>
            <trkpt lat="47.264897510" lon="4.899359363">
                <ele>545.000000</ele>
            </trkpt>
            <trkpt lat="47.264757397" lon="4.899336124">
                <ele>545.000000</ele>
                <time>2017-02-12T08:34:00Z</time>
            </trkpt>
            <trkpt lat="47.264628705" lon="4.899305169">
                <ele>545.000000</ele>
                <time>2017-02-12T08:34:15Z</time>
            </trkpt>
            <trkpt lat="47.264511068" lon="4.899283006">
                <ele>545.000000</ele>
                <time>2017-02-12T08:34:16Z</time>
            </trkpt>
            <trkpt lat="47.264404853" lon="4.899253128">
                <ele>546.000000</ele>
                <time>2017-02-12T08:34:21Z</time>
            </trkpt>
            <trkpt lat="47.264320932" lon="4.899232581">
                <ele>546.000000</ele>
                <time>2017-02-12T08:34:48Z</time>
            </trkpt>
            <trkpt lat="47.264202929" lon="4.899226928">
                <ele>546.000000</ele>
                <time>2017-02-12T08:35:03Z</time>
            </trkpt>
            <trkpt lat="47.264033253" lon="4.899268381">
                <ele>546.000000</ele>
                <time>2017-02-12T08:35:05Z</time>
            </trkpt>
            <trkpt lat="47.263890941" lon="4.899344199">
                <ele>546.000000</ele>
                <time>2017-02-12T08:35:07Z</time>
            </trkpt>
            <trkpt lat="47.263805187" lon="4.899406199">
                <ele>545.000000</ele>
                <time>2017-02-12T08:35:09Z</time>
            </trkpt>
            <trkpt lat="47.263685168" lon="4.899491347">
                <ele>544.000000</ele>
                <time>2017-02-12T08:35:23Z</time>
            </trkpt>
            <trkpt lat="47.263587809" lon="4.899569317">
                <ele>544.000000</ele>
                <time>2017-02-12T08:35:24Z</time>
            </trkpt>
            <trkpt lat="47.263483915" lon="4.899688291">
                <ele>543.000000</ele>
                <time>2017-02-12T08:35:27Z</time>
            </trkpt>
            <trkpt lat="47.263403230" lon="4.899775322">
                <ele>542.000000</ele>
                <time>2017-02-12T08:35:43Z</time>
            </trkpt>
            <trkpt lat="47.263299702" lon="4.899877786">
                <ele>542.000000</ele>
                <time>2017-02-12T08:35:59Z</time>
            </trkpt>
            <trkpt lat="47.263203076" lon="4.899922736">
                <ele>543.000000</ele>
                <time>2017-02-12T08:36:02Z</time>
            </trkpt>
            <trkpt lat="47.263123858" lon="4.899943731">
                <ele>544.000000</ele>
                <time>2017-02-12T08:36:08Z</time>
            </trkpt>
            <trkpt lat="47.263004205" lon="4.900012368">
                <ele>543.000000</ele>
                <time>2017-02-12T08:36:24Z</time>
            </trkpt>
            <trkpt lat="47.262924620" lon="4.900049871">
                <ele>543.000000</ele>
                <time>2017-02-12T08:36:45Z</time>
            </trkpt>
            <trkpt lat="47.262804600" lon="4.900135016">
                <ele>543.000000</ele>
                <time>2017-02-12T08:37:01Z</time>
            </trkpt>
            <trkpt lat="47.262757447" lon="4.900231916">
                <ele>543.000000</ele>
                <time>2017-02-12T08:37:08Z</time>
            </trkpt>
            <trkpt lat="47.262687972" lon="4.900399055">
                <ele>544.000000</ele>
                <time>2017-02-12T08:37:25Z</time>
            </trkpt>
            <trkpt lat="47.262643350" lon="4.900556980">
                <ele>545.000000</ele>
                <time>2017-02-12T08:37:36Z</time>
            </trkpt>
            <trkpt lat="47.262605968" lon="4.900720453">
                <ele>546.000000</ele>
                <time>2017-02-12T08:37:55Z</time>
            </trkpt>
            <trkpt lat="47.262562417" lon="4.900908421">
                <ele>547.000000</ele>
                <time>2017-02-12T08:38:13Z</time>
            </trkpt>
            <trkpt lat="47.262529554" lon="4.901121690">
                <ele>548.000000</ele>
                <time>2017-02-12T08:38:27Z</time>
            </trkpt>
            <trkpt lat="47.262492171" lon="4.901285163">
                <ele>548.000000</ele>
                <time>2017-02-12T08:38:34Z</time>
            </trkpt>
            <trkpt lat="47.262443183" lon="4.901464606">
                <ele>549.000000</ele>
                <time>2017-02-12T08:38:50Z</time>
            </trkpt>
            <trkpt lat="47.262384057" lon="4.901593983">
                <ele>550.000000</ele>
                <time>2017-02-12T08:38:52Z</time>
            </trkpt>
            <trkpt lat="47.262325114" lon="4.901715106">
                <ele>551.000000</ele>
                <time>2017-02-12T08:38:56Z</time>
            </trkpt>
            <trkpt lat="47.262272524" lon="4.901803480">
                <ele>552.000000</ele>
                <time>2017-02-12T08:39:04Z</time>
            </trkpt>
            <trkpt lat="47.262180049" lon="4.901914731">
                <ele>554.000000</ele>
                <time>2017-02-12T08:39:19Z</time>
            </trkpt>
            <trkpt lat="47.262088124" lon="4.902001218">
                <ele>555.000000</ele>
                <time>2017-02-12T08:39:27Z</time>
            </trkpt>
            <trkpt lat="47.261990597" lon="4.902045764">
                <ele>557.000000</ele>
                <time>2017-02-12T08:39:30Z</time>
            </trkpt>
            <trkpt lat="47.261883815" lon="4.902082316">
                <ele>558.000000</ele>
                <time>2017-02-12T08:39:44Z</time>
            </trkpt>
            <trkpt lat="47.261776317" lon="4.902110213">
                <ele>560.000000</ele>
                <time>2017-02-12T08:39:51Z</time>
            </trkpt>
            <trkpt lat="47.261673887" lon="4.902163144">
                <ele>561.000000</ele>
                <time>2017-02-12T08:39:57Z</time>
            </trkpt>
            <trkpt lat="47.261582512" lon="4.902224867">
                <ele>562.000000</ele>
                <time>2017-02-12T08:40:11Z</time>
            </trkpt>
            <trkpt lat="47.261490771" lon="4.902303098">
                <ele>563.000000</ele>
                <time>2017-02-12T08:40:17Z</time>
            </trkpt>
            <trkpt lat="47.261369649" lon="4.902437762">
                <ele>564.000000</ele>
                <time>2017-02-12T08:40:31Z</time>
            </trkpt>
            <trkpt lat="47.261265568" lon="4.902564979">
                <ele>565.000000</ele>
                <time>2017-02-12T08:40:45Z</time>
            </trkpt>
            <trkpt lat="47.261144079" lon="4.902716150">
                <ele>566.000000</ele>
                <time>2017-02-12T08:40:50Z</time>
            </trkpt>
            <trkpt lat="47.261050483" lon="4.902823772">
                <ele>566.000000</ele>
                <time>2017-02-12T08:40:52Z</time>
            </trkpt>
            <trkpt lat="47.260970732" lon="4.902922675">
                <ele>566.000000</ele>
                <time>2017-02-12T08:40:57Z</time>
            </trkpt>
            <trkpt lat="47.260895114" lon="4.903034729">
                <ele>567.000000</ele>
                <time>2017-02-12T08:41:13Z</time>
            </trkpt>
            <trkpt lat="47.260756950" lon="4.903176836">
                <ele>567.000000</ele>
                <time>2017-02-12T08:41:28Z</time>
            </trkpt>
            <trkpt lat="47.260647800" lon="4.903279018">
                <ele>568.000000</ele>
                <time>2017-02-12T08:41:36Z</time>
            </trkpt>
            <trkpt lat="47.260533397" lon="4.903364422">
                <ele>568.000000</ele>
                <time>2017-02-12T08:41:51Z</time>
            </trkpt>
            <trkpt lat="47.260424797" lon="4.903441841">
                <ele>568.000000</ele>
                <time>2017-02-12T08:41:56Z</time>
            </trkpt>
            <trkpt lat="47.260242780" lon="4.903532264">
                <ele>568.000000</ele>
                <time>2017-02-12T08:42:01Z</time>
            </trkpt>
            <trkpt lat="47.260118608" lon="4.903551095">
                <ele>568.000000</ele>
                <time>2017-02-12T08:42:04Z</time>
            </trkpt>
            <trkpt lat="47.259982462" lon="4.903602403">
                <ele>568.000000</ele>
                <time>2017-02-12T08:42:19Z</time>
            </trkpt>
            <trkpt lat="47.259852853" lon="4.903612710">
                <ele>568.000000</ele>
                <time>2017-02-12T08:42:24Z</time>
            </trkpt>
            <trkpt lat="47.259711823" lon="4.903630732">
                <ele>568.000000</ele>
                <time>2017-02-12T08:42:33Z</time>
            </trkpt>
            <trkpt lat="47.259588201" lon="4.903624801">
                <ele>568.000000</ele>
                <time>2017-02-12T08:42:46Z</time>
            </trkpt>
            <trkpt lat="47.259453156" lon="4.903626584">
                <ele>568.000000</ele>
                <time>2017-02-12T08:43:01Z</time>
            </trkpt>
            <trkpt lat="47.259285131" lon="4.903593734">
                <ele>568.000000</ele>
                <time>2017-02-12T08:43:17Z</time>
            </trkpt>
            <trkpt lat="47.259172931" lon="4.903580088">
                <ele>568.000000</ele>
                <time>2017-02-12T08:43:28Z</time>
            </trkpt>
            <trkpt lat="47.259049675" lon="4.903557649">
                <ele>568.000000</ele>
                <time>2017-02-12T08:43:30Z</time>
            </trkpt>
            <trkpt lat="47.258908645" lon="4.903575671">
                <ele>568.000000</ele>
                <time>2017-02-12T08:43:36Z</time>
            </trkpt>
            <trkpt lat="47.258757110" lon="4.903560138">
                <ele>568.000000</ele>
                <time>2017-02-12T08:43:49Z</time>
            </trkpt>
            <trkpt lat="47.258649978" lon="4.903571524">
                <ele>568.000000</ele>
                <time>2017-02-12T08:44:02Z</time>
            </trkpt>
            <trkpt lat="47.258530799" lon="4.903557273">
                <ele>568.000000</ele>
                <time>2017-02-12T08:44:07Z</time>
            </trkpt>
            <trkpt lat="47.258385142" lon="4.903591868">
                <ele>568.000000</ele>
                <time>2017-02-12T08:44:21Z</time>
            </trkpt>
            <trkpt lat="47.258271840" lon="4.903627745">
                <ele>568.000000</ele>
                <time>2017-02-12T08:44:34Z</time>
            </trkpt>
            <trkpt lat="47.258169410" lon="4.903680669">
                <ele>568.000000</ele>
                <time>2017-02-12T08:44:48Z</time>
            </trkpt>
            <trkpt lat="47.258032713" lon="4.903756736">
                <ele>567.000000</ele>
                <time>2017-02-12T08:45:03Z</time>
            </trkpt>
            <trkpt lat="47.257902738" lon="4.903783550">
                <ele>567.000000</ele>
                <time>2017-02-12T08:45:15Z</time>
            </trkpt>
            <trkpt lat="47.257773129" lon="4.903793856">
                <ele>566.000000</ele>
                <time>2017-02-12T08:45:18Z</time>
            </trkpt>
            <trkpt lat="47.257626479" lon="4.903811607">
                <ele>566.000000</ele>
                <time>2017-02-12T08:45:32Z</time>
            </trkpt>
            <trkpt lat="47.257497054" lon="4.903813660">
                <ele>565.000000</ele>
                <time>2017-02-12T08:45:35Z</time>
            </trkpt>
            <trkpt lat="47.257384303" lon="4.903824775">
                <ele>565.000000</ele>
                <time>2017-02-12T08:45:40Z</time>
            </trkpt>
            <trkpt lat="47.257243456" lon="4.903834542">
                <ele>564.000000</ele>
                <time>2017-02-12T08:45:44Z</time>
            </trkpt>
            <trkpt lat="47.257130521" lon="4.903853910">
                <ele>563.000000</ele>
            </trkpt>
            <trkpt lat="47.256949789" lon="4.903886551">
                <ele>561.000000</ele>
                <time>2017-02-12T08:45:53Z</time>
            </trkpt>
            <trkpt lat="47.256814377" lon="4.903904841">
                <ele>560.000000</ele>
                <time>2017-02-12T08:45:57Z</time>
            </trkpt>
            <trkpt lat="47.256673163" lon="4.903931114">
                <ele>559.000000</ele>
                <time>2017-02-12T08:46:12Z</time>
            </trkpt>
            <trkpt lat="47.256503853" lon="4.903956040">
                <ele>558.000000</ele>
                <time>2017-02-12T08:46:17Z</time>
            </trkpt>
            <trkpt lat="47.256339244" lon="4.904022502">
                <ele>556.000000</ele>
                <time>2017-02-12T08:46:23Z</time>
            </trkpt>
            <trkpt lat="47.256196928" lon="4.904098296">
                <ele>555.000000</ele>
                <time>2017-02-12T08:46:38Z</time>
            </trkpt>
            <trkpt lat="47.256070919" lon="4.904199659">
                <ele>554.000000</ele>
                <time>2017-02-12T08:46:53Z</time>
            </trkpt>
            <trkpt lat="47.255983510" lon="4.904335923">
                <ele>552.000000</ele>
                <time>2017-02-12T08:46:55Z</time>
            </trkpt>
            <trkpt lat="47.255980572" lon="4.904467978">
                <ele>550.000000</ele>
                <time>2017-02-12T08:47:02Z</time>
            </trkpt>
            <trkpt lat="47.256097474" lon="4.904523162">
                <ele>548.000000</ele>
                <time>2017-02-12T08:47:15Z</time>
            </trkpt>
            <trkpt lat="47.256196783" lon="4.904610551">
                <ele>546.000000</ele>
                <time>2017-02-12T08:47:26Z</time>
            </trkpt>
            <trkpt lat="47.256296460" lon="4.904681433">
                <ele>544.000000</ele>
                <time>2017-02-12T08:47:36Z</time>
            </trkpt>
            <trkpt lat="47.256400654" lon="4.904802107">
                <ele>542.000000</ele>
                <time>2017-02-12T08:47:52Z</time>
            </trkpt>
            <trkpt lat="47.256494344" lon="4.904889227">
                <ele>540.000000</ele>
                <time>2017-02-12T08:48:07Z</time>
            </trkpt>
            <trkpt lat="47.256609777" lon="4.905010441">
                <ele>538.000000</ele>
                <time>2017-02-12T08:48:17Z</time>
            </trkpt>
            <trkpt lat="47.256708535" lon="4.905122592">
                <ele>535.000000</ele>
                <time>2017-02-12T08:48:36Z</time>
            </trkpt>
            <trkpt lat="47.256796238" lon="4.905225951">
                <ele>534.000000</ele>
                <time>2017-02-12T08:48:54Z</time>
            </trkpt>
            <trkpt lat="47.256877404" lon="4.905370308">
                <ele>532.000000</ele>
                <time>2017-02-12T08:49:08Z</time>
            </trkpt>
            <trkpt lat="47.256942814" lon="4.905464335">
                <ele>530.000000</ele>
                <time>2017-02-12T08:49:11Z</time>
            </trkpt>
            <trkpt lat="47.256940242" lon="4.905579885">
                <ele>528.000000</ele>
                <time>2017-02-12T08:49:18Z</time>
            </trkpt>
            <trkpt lat="47.256871526" lon="4.905634422">
                <ele>526.000000</ele>
                <time>2017-02-12T08:49:24Z</time>
            </trkpt>
            <trkpt lat="47.256780517" lon="4.905679627">
                <ele>524.000000</ele>
                <time>2017-02-12T08:49:28Z</time>
            </trkpt>
            <trkpt lat="47.256711249" lon="4.905758925">
                <ele>522.000000</ele>
                <time>2017-02-12T08:49:30Z</time>
            </trkpt>
            <trkpt lat="47.256641615" lon="4.905854729">
                <ele>521.000000</ele>
                <time>2017-02-12T08:49:34Z</time>
            </trkpt>
            <trkpt lat="47.256587184" lon="4.906025625">
                <ele>518.000000</ele>
                <time>2017-02-12T08:49:48Z</time>
            </trkpt>
            <trkpt lat="47.256577890" lon="4.906190426">
                <ele>516.000000</ele>
                <time>2017-02-12T08:49:51Z</time>
            </trkpt>
            <trkpt lat="47.256584903" lon="4.906380797">
                <ele>513.000000</ele>
                <time>2017-02-12T08:50:03Z</time>
            </trkpt>
            <trkpt lat="47.256615127" lon="4.906539233">
                <ele>511.000000</ele>
                <time>2017-02-12T08:50:15Z</time>
            </trkpt>
            <trkpt lat="47.256634112" lon="4.906697130">
                <ele>509.000000</ele>
                <time>2017-02-12T08:50:29Z</time>
            </trkpt>
            <trkpt lat="47.256641492" lon="4.906870994">
                <ele>507.000000</ele>
                <time>2017-02-12T08:50:30Z</time>
            </trkpt>
            <trkpt lat="47.256615155" lon="4.907043238">
                <ele>506.000000</ele>
                <time>2017-02-12T08:50:34Z</time>
            </trkpt>
            <trkpt lat="47.256550404" lon="4.907172325">
                <ele>505.000000</ele>
            </trkpt>
            <trkpt lat="47.256468059" lon="4.907333616">
                <ele>504.000000</ele>
                <time>2017-02-12T08:50:49Z</time>
            </trkpt>
            <trkpt lat="47.256407455" lon="4.907529000">
                <ele>503.000000</ele>
                <time>2017-02-12T08:51:05Z</time>
            </trkpt>
            <trkpt lat="47.256364077" lon="4.907708687">
                <ele>503.000000</ele>
                <time>2017-02-12T08:51:23Z</time>
            </trkpt>
            <trkpt lat="47.256321162" lon="4.907931369">
                <ele>503.000000</ele>
                <time>2017-02-12T08:51:37Z</time>
            </trkpt>
            <trkpt lat="47.256333735" lon="4.908211576">
                <ele>503.000000</ele>
                <time>2017-02-12T08:51:52Z</time>
            </trkpt>
            <trkpt lat="47.256286126" lon="4.908315176">
                <ele>503.000000</ele>
                <time>2017-02-12T08:52:00Z</time>
            </trkpt>
            <trkpt lat="47.256236756" lon="4.908380136">
                <ele>504.000000</ele>
                <time>2017-02-12T08:52:05Z</time>
            </trkpt>
            <trkpt lat="47.256230997" lon="4.908379801">
                <ele>504.000000</ele>
                <time>2017-03-05T08:06:30Z</time>
            </trkpt>
            <trkpt lat="47.256126953" lon="4.908449370">
                <ele>505.000000</ele>
                <time>2017-03-05T08:06:39Z</time>
            </trkpt>
            <trkpt lat="47.256031567" lon="4.908494149">
                <ele>506.000000</ele>
                <time>2017-03-05T08:06:43Z</time>
            </trkpt>
            <trkpt lat="47.255925871" lon="4.908713736">
                <ele>507.000000</ele>
                <time>2017-03-05T08:06:58Z</time>
            </trkpt>
            <trkpt lat="47.255876273" lon="4.908899797">
                <ele>507.000000</ele>
                <time>2017-03-05T08:07:10Z</time>
            </trkpt>
            <trkpt lat="47.255850670" lon="4.909039025">
                <ele>507.000000</ele>
                <time>2017-03-05T08:07:14Z</time>
            </trkpt>
            <trkpt lat="47.255813276" lon="4.909202472">
                <ele>507.000000</ele>
                <time>2017-03-05T08:07:26Z</time>
            </trkpt>
            <trkpt lat="47.255782237" lon="4.909333175">
                <ele>507.000000</ele>
                <time>2017-03-05T08:07:33Z</time>
            </trkpt>
            <trkpt lat="47.255749726" lon="4.909529906">
                <ele>507.000000</ele>
                <time>2017-03-05T08:07:42Z</time>
            </trkpt>
            <trkpt lat="47.255709954" lon="4.909653263">
                <ele>507.000000</ele>
                <time>2017-03-05T08:07:46Z</time>
            </trkpt>
            <trkpt lat="47.255652705" lon="4.909882089">
                <ele>506.000000</ele>
                <time>2017-03-05T08:07:56Z</time>
            </trkpt>
            <trkpt lat="47.255619396" lon="4.910077207">
                <ele>506.000000</ele>
                <time>2017-03-05T08:08:08Z</time>
            </trkpt>
            <trkpt lat="47.255569106" lon="4.910314392">
                <ele>505.000000</ele>
                <time>2017-03-05T08:08:12Z</time>
            </trkpt>
            <trkpt lat="47.255513196" lon="4.910551307">
                <ele>505.000000</ele>
                <time>2017-03-05T08:08:24Z</time>
            </trkpt>
            <trkpt lat="47.255469261" lon="4.910755748">
                <ele>504.000000</ele>
                <time>2017-03-05T08:08:39Z</time>
            </trkpt>
            <trkpt lat="47.255431865" lon="4.910919193">
                <ele>503.000000</ele>
                <time>2017-03-05T08:08:53Z</time>
            </trkpt>
            <trkpt lat="47.255388481" lon="4.911098874">
                <ele>503.000000</ele>
                <time>2017-03-05T08:09:05Z</time>
            </trkpt>
            <trkpt lat="47.255350900" lon="4.911270571">
                <ele>502.000000</ele>
                <time>2017-03-05T08:09:15Z</time>
            </trkpt>
            <trkpt lat="47.255307884" lon="4.911433745">
                <ele>501.000000</ele>
                <time>2017-03-05T08:09:19Z</time>
            </trkpt>
            <trkpt lat="47.255259432" lon="4.911588394">
                <ele>501.000000</ele>
                <time>2017-03-05T08:09:22Z</time>
            </trkpt>
            <trkpt lat="47.255217888" lon="4.911685541">
                <ele>500.000000</ele>
                <time>2017-03-05T08:09:28Z</time>
            </trkpt>
            <trkpt lat="47.255139404" lon="4.911673502">
                <ele>500.000000</ele>
                <time>2017-03-05T08:09:34Z</time>
            </trkpt>
            <trkpt lat="47.255073999" lon="4.911579471">
                <ele>499.000000</ele>
                <time>2017-03-05T08:09:47Z</time>
            </trkpt>
            <trkpt lat="47.255019832" lon="4.911485980">
                <ele>498.000000</ele>
                <time>2017-03-05T08:09:50Z</time>
            </trkpt>
            <trkpt lat="47.254949360" lon="4.911366919">
                <ele>497.000000</ele>
                <time>2017-03-05T08:09:54Z</time>
            </trkpt>
            <trkpt lat="47.254884876" lon="4.911231623">
                <ele>497.000000</ele>
                <time>2017-03-05T08:09:55Z</time>
            </trkpt>
            <trkpt lat="47.254830893" lon="4.911129880">
                <ele>497.000000</ele>
                <time>2017-03-05T08:09:56Z</time>
            </trkpt>
            <trkpt lat="47.254754433" lon="4.911027056">
                <ele>497.000000</ele>
                <time>2017-03-05T08:09:57Z</time>
            </trkpt>
            <trkpt lat="47.254689764" lon="4.910900014">
                <ele>496.000000</ele>
                <time>2017-03-05T08:10:01Z</time>
            </trkpt>
            <trkpt lat="47.254635412" lon="4.910814778">
                <ele>496.000000</ele>
                <time>2017-03-05T08:10:02Z</time>
            </trkpt>
            <trkpt lat="47.254575074" lon="4.910745779">
                <ele>495.000000</ele>
                <time>2017-03-05T08:10:03Z</time>
            </trkpt>
            <trkpt lat="47.254515839" lon="4.910627260">
                <ele>495.000000</ele>
                <time>2017-03-05T08:10:22Z</time>
            </trkpt>
            <trkpt lat="47.254439379" lon="4.910524438">
                <ele>495.000000</ele>
                <time>2017-03-05T08:10:23Z</time>
            </trkpt>
            <trkpt lat="47.254357668" lon="4.910404839">
                <ele>495.000000</ele>
                <time>2017-03-05T08:10:29Z</time>
            </trkpt>
            <trkpt lat="47.254298433" lon="4.910286321">
                <ele>495.000000</ele>
                <time>2017-03-05T08:10:30Z</time>
            </trkpt>
            <trkpt lat="47.254216721" lon="4.910166723">
                <ele>495.000000</ele>
                <time>2017-03-05T08:10:43Z</time>
            </trkpt>
            <trkpt lat="47.254146616" lon="4.910031160">
                <ele>495.000000</ele>
                <time>2017-03-05T08:10:55Z</time>
            </trkpt>
            <trkpt lat="47.254076879" lon="4.909879090">
                <ele>495.000000</ele>
                <time>2017-03-05T08:11:05Z</time>
            </trkpt>
            <trkpt lat="47.254011840" lon="4.909768557">
                <ele>495.000000</ele>
                <time>2017-03-05T08:11:19Z</time>
            </trkpt>
            <trkpt lat="47.253936115" lon="4.909632724">
                <ele>495.000000</ele>
                <time>2017-03-05T08:11:26Z</time>
            </trkpt>
            <trkpt lat="47.253860022" lon="4.909513398">
                <ele>495.000000</ele>
                <time>2017-03-05T08:11:27Z</time>
            </trkpt>
            <trkpt lat="47.253795351" lon="4.909386359">
                <ele>495.000000</ele>
                <time>2017-03-05T08:11:31Z</time>
            </trkpt>
            <trkpt lat="47.253747353" lon="4.909268384">
                <ele>495.000000</ele>
                <time>2017-03-05T08:11:32Z</time>
            </trkpt>
            <trkpt lat="47.253710226" lon="4.909167456">
                <ele>496.000000</ele>
                <time>2017-03-05T08:11:33Z</time>
            </trkpt>
            <trkpt lat="47.253643898" lon="4.909049096">
                <ele>496.000000</ele>
                <time>2017-03-05T08:12:04Z</time>
            </trkpt>
            <trkpt lat="47.253560899" lon="4.909052872">
                <ele>495.000000</ele>
                <time>2017-03-05T08:12:11Z</time>
            </trkpt>
            <trkpt lat="47.253492917" lon="4.909074390">
                <ele>494.000000</ele>
                <time>2017-03-05T08:12:25Z</time>
            </trkpt>
            <trkpt lat="47.253425487" lon="4.909071148">
                <ele>493.000000</ele>
                <time>2017-03-05T08:12:26Z</time>
            </trkpt>
            <trkpt lat="47.253378878" lon="4.909143264">
                <ele>491.000000</ele>
                <time>2017-03-05T08:12:30Z</time>
            </trkpt>
            <trkpt lat="47.253437930" lon="4.909270031">
                <ele>491.000000</ele>
                <time>2017-03-05T08:12:34Z</time>
            </trkpt>
            <trkpt lat="47.253491731" lon="4.909380022">
                <ele>491.000000</ele>
                <time>2017-03-05T08:12:38Z</time>
            </trkpt>
            <trkpt lat="47.253562205" lon="4.909499077">
                <ele>491.000000</ele>
                <time>2017-03-05T08:12:52Z</time>
            </trkpt>
            <trkpt lat="47.253604767" lon="4.909608529">
                <ele>490.000000</ele>
                <time>2017-03-05T08:12:54Z</time>
            </trkpt>
            <trkpt lat="47.253652948" lon="4.909718250">
                <ele>490.000000</ele>
                <time>2017-03-05T08:13:13Z</time>
            </trkpt>
            <trkpt lat="47.253599799" lon="4.909831361">
                <ele>488.000000</ele>
                <time>2017-03-05T08:13:24Z</time>
            </trkpt>
            <trkpt lat="47.253523806" lon="4.909959897">
                <ele>486.000000</ele>
                <time>2017-03-05T08:13:33Z</time>
            </trkpt>
            <trkpt lat="47.253448364" lon="4.910063673">
                <ele>484.000000</ele>
                <time>2017-03-05T08:13:36Z</time>
            </trkpt>
            <trkpt lat="47.253366751" lon="4.910191938">
                <ele>483.000000</ele>
                <time>2017-03-05T08:13:39Z</time>
            </trkpt>
            <trkpt lat="47.253292361" lon="4.910337394">
                <ele>481.000000</ele>
                <time>2017-03-05T08:13:50Z</time>
            </trkpt>
            <trkpt lat="47.253150120" lon="4.910478713">
                <ele>479.000000</ele>
                <time>2017-03-05T08:14:05Z</time>
            </trkpt>
            <trkpt lat="47.253083130" lon="4.910550079">
                <ele>477.000000</ele>
                <time>2017-03-05T08:14:21Z</time>
            </trkpt>
            <trkpt lat="47.252976365" lon="4.910544943">
                <ele>476.000000</ele>
                <time>2017-03-05T08:14:22Z</time>
            </trkpt>
            <trkpt lat="47.252886826" lon="4.910524113">
                <ele>474.000000</ele>
            </trkpt>
            <trkpt lat="47.252779878" lon="4.910527230">
                <ele>472.000000</ele>
                <time>2017-03-05T08:14:38Z</time>
            </trkpt>
            <trkpt lat="47.252668580" lon="4.910510648">
                <ele>470.000000</ele>
                <time>2017-03-05T08:14:45Z</time>
            </trkpt>
            <trkpt lat="47.252532206" lon="4.910457591">
                <ele>469.000000</ele>
                <time>2017-03-05T08:14:58Z</time>
            </trkpt>
            <trkpt lat="47.252428187" lon="4.910453735">
                <ele>467.000000</ele>
                <time>2017-03-05T08:15:08Z</time>
            </trkpt>
            <trkpt lat="47.252276558" lon="4.910485083">
                <ele>464.000000</ele>
                <time>2017-03-05T08:15:22Z</time>
            </trkpt>
            <trkpt lat="47.252157787" lon="4.910527831">
                <ele>462.000000</ele>
                <time>2017-03-05T08:15:36Z</time>
            </trkpt>
            <trkpt lat="47.252092312" lon="4.910585035">
                <ele>460.000000</ele>
                <time>2017-03-05T08:15:48Z</time>
            </trkpt>
            <trkpt lat="47.252072693" lon="4.910708017">
                <ele>460.000000</ele>
                <time>2017-03-05T08:16:02Z</time>
            </trkpt>
            <trkpt lat="47.252080987" lon="4.910840603">
                <ele>460.000000</ele>
                <time>2017-03-05T08:16:16Z</time>
            </trkpt>
            <trkpt lat="47.252100519" lon="4.910973729">
                <ele>460.000000</ele>
                <time>2017-03-05T08:16:30Z</time>
            </trkpt>
            <trkpt lat="47.252097205" lon="4.911122280">
                <ele>460.000000</ele>
                <time>2017-03-05T08:16:34Z</time>
            </trkpt>
            <trkpt lat="47.251980510" lon="4.911143146">
                <ele>462.000000</ele>
                <time>2017-03-05T08:16:53Z</time>
            </trkpt>
            <trkpt lat="47.251867739" lon="4.911069931">
                <ele>464.000000</ele>
                <time>2017-03-05T08:17:12Z</time>
            </trkpt>
            <trkpt lat="47.251755171" lon="4.911072777">
                <ele>467.000000</ele>
                <time>2017-03-05T08:17:31Z</time>
            </trkpt>
            <trkpt lat="47.251627954" lon="4.910975779">
                <ele>468.000000</ele>
            </trkpt>
            <trkpt lat="47.251517227" lon="4.910896098">
                <ele>470.000000</ele>
                <time>2017-03-05T08:17:50Z</time>
            </trkpt>
            <trkpt lat="47.251388580" lon="4.910856234">
                <ele>473.000000</ele>
                <time>2017-03-05T08:18:03Z</time>
            </trkpt>
            <trkpt lat="47.251271823" lon="4.910801676">
                <ele>476.000000</ele>
            </trkpt>
            <trkpt lat="47.251154808" lon="4.910757998">
                <ele>478.000000</ele>
                <time>2017-03-05T08:18:24Z</time>
            </trkpt>
            <trkpt lat="47.250952301" lon="4.910685662">
                <ele>480.000000</ele>
                <time>2017-03-05T08:18:42Z</time>
            </trkpt>
            <trkpt lat="47.250836103" lon="4.910665055">
                <ele>481.000000</ele>
                <time>2017-03-05T08:18:55Z</time>
            </trkpt>
            <trkpt lat="47.250713032" lon="4.910634351">
                <ele>482.000000</ele>
                <time>2017-03-05T08:19:10Z</time>
            </trkpt>
            <trkpt lat="47.250590514" lon="4.910578889">
                <ele>483.000000</ele>
            </trkpt>
            <trkpt lat="47.250461457" lon="4.910564419">
                <ele>483.000000</ele>
                <time>2017-03-05T08:19:29Z</time>
            </trkpt>
            <trkpt lat="47.250327884" lon="4.910500165">
                <ele>484.000000</ele>
            </trkpt>
            <trkpt lat="47.250191453" lon="4.910311852">
                <ele>483.000000</ele>
                <time>2017-03-05T08:19:46Z</time>
            </trkpt>
            <trkpt lat="47.250080909" lon="4.910223922">
                <ele>483.000000</ele>
            </trkpt>
            <trkpt lat="47.249975617" lon="4.910152767">
                <ele>483.000000</ele>
                <time>2017-03-05T08:20:06Z</time>
            </trkpt>
            <trkpt lat="47.249863601" lon="4.910130857">
                <ele>482.000000</ele>
            </trkpt>
            <trkpt lat="47.249728556" lon="4.910132624">
                <ele>481.000000</ele>
                <time>2017-03-05T08:20:18Z</time>
            </trkpt>
            <trkpt lat="47.249579430" lon="4.910225831">
                <ele>481.000000</ele>
                <time>2017-03-05T08:20:29Z</time>
            </trkpt>
            <trkpt lat="47.249473985" lon="4.910285594">
                <ele>480.000000</ele>
                <time>2017-03-05T08:20:41Z</time>
            </trkpt>
            <trkpt lat="47.249369762" lon="4.910330162">
                <ele>480.000000</ele>
                <time>2017-03-05T08:21:02Z</time>
            </trkpt>
            <trkpt lat="47.249278567" lon="4.910383604">
                <ele>481.000000</ele>
                <time>2017-03-05T08:21:23Z</time>
            </trkpt>
            <trkpt lat="47.249198242" lon="4.910454092">
                <ele>482.000000</ele>
            </trkpt>
            <trkpt lat="47.249122984" lon="4.910549607">
                <ele>483.000000</ele>
            </trkpt>
            <trkpt lat="47.249029764" lon="4.910693825">
                <ele>484.000000</ele>
                <time>2017-03-05T08:21:32Z</time>
            </trkpt>
            <trkpt lat="47.248917196" lon="4.910696671">
                <ele>485.000000</ele>
                <time>2017-03-05T08:21:46Z</time>
            </trkpt>
            <trkpt lat="47.248793941" lon="4.910674220">
                <ele>487.000000</ele>
                <time>2017-03-05T08:22:01Z</time>
            </trkpt>
            <trkpt lat="47.248704954" lon="4.910628634">
                <ele>488.000000</ele>
                <time>2017-03-05T08:22:20Z</time>
            </trkpt>
            <trkpt lat="47.248604729" lon="4.910582507">
                <ele>490.000000</ele>
                <time>2017-03-05T08:22:34Z</time>
            </trkpt>
            <trkpt lat="47.248522097" lon="4.910504183">
                <ele>491.000000</ele>
            </trkpt>
            <trkpt lat="47.248405935" lon="4.910415984">
                <ele>492.000000</ele>
                <time>2017-03-05T08:22:47Z</time>
            </trkpt>
            <trkpt lat="47.248300267" lon="4.910426159">
                <ele>492.000000</ele>
                <time>2017-03-05T08:23:00Z</time>
            </trkpt>
            <trkpt lat="47.248181167" lon="4.910405174">
                <ele>493.000000</ele>
                <time>2017-03-05T08:23:07Z</time>
            </trkpt>
            <trkpt lat="47.248132434" lon="4.910320220">
                <ele>493.000000</ele>
                <time>2017-03-05T08:23:14Z</time>
            </trkpt>
            <trkpt lat="47.248091161" lon="4.910153013">
                <ele>493.000000</ele>
                <time>2017-03-05T08:23:24Z</time>
            </trkpt>
            <trkpt lat="47.248026858" lon="4.910009483">
                <ele>493.000000</ele>
            </trkpt>
            <trkpt lat="47.247916460" lon="4.909820734">
                <ele>493.000000</ele>
                <time>2017-03-05T08:23:39Z</time>
            </trkpt>
            <trkpt lat="47.247809082" lon="4.909685093">
                <ele>492.000000</ele>
            </trkpt>
            <trkpt lat="47.247711248" lon="4.909531691">
                <ele>490.000000</ele>
            </trkpt>
            <trkpt lat="47.247552154" lon="4.909350561">
                <ele>489.000000</ele>
                <time>2017-03-05T08:23:57Z</time>
            </trkpt>
            <trkpt lat="47.247398679" lon="4.909169703">
                <ele>488.000000</ele>
                <time>2017-03-05T08:24:14Z</time>
            </trkpt>
            <trkpt lat="47.247267129" lon="4.909014683">
                <ele>488.000000</ele>
                <time>2017-03-05T08:24:28Z</time>
            </trkpt>
            <trkpt lat="47.247152804" lon="4.908843969">
                <ele>488.000000</ele>
                <time>2017-03-05T08:24:44Z</time>
            </trkpt>
            <trkpt lat="47.247038295" lon="4.908681508">
                <ele>487.000000</ele>
                <time>2017-03-05T08:24:56Z</time>
            </trkpt>
            <trkpt lat="47.246929072" lon="4.908503350">
                <ele>486.000000</ele>
                <time>2017-03-05T08:25:09Z</time>
            </trkpt>
            <trkpt lat="47.246759841" lon="4.908219119">
                <ele>484.000000</ele>
                <time>2017-03-05T08:25:26Z</time>
            </trkpt>
            <trkpt lat="47.246680851" lon="4.908061288">
                <ele>483.000000</ele>
                <time>2017-03-05T08:25:42Z</time>
            </trkpt>
            <trkpt lat="47.246616546" lon="4.907917764">
                <ele>481.000000</ele>
                <time>2017-03-05T08:25:43Z</time>
            </trkpt>
            <trkpt lat="47.246502035" lon="4.907755307">
                <ele>480.000000</ele>
                <time>2017-03-05T08:25:47Z</time>
            </trkpt>
            <trkpt lat="47.246370300" lon="4.907608545">
                <ele>478.000000</ele>
                <time>2017-03-05T08:26:01Z</time>
            </trkpt>
            <trkpt lat="47.246210100" lon="4.907476937">
                <ele>476.000000</ele>
                <time>2017-03-05T08:26:14Z</time>
            </trkpt>
            <trkpt lat="47.246023994" lon="4.907399286">
                <ele>475.000000</ele>
                <time>2017-03-05T08:26:28Z</time>
            </trkpt>
            <trkpt lat="47.245834060" lon="4.907254949">
                <ele>473.000000</ele>
                <time>2017-03-05T08:26:43Z</time>
            </trkpt>
            <trkpt lat="47.245716975" lon="4.907139342">
                <ele>473.000000</ele>
            </trkpt>
            <trkpt lat="47.245573448" lon="4.907016799">
                <ele>472.000000</ele>
                <time>2017-03-05T08:26:59Z</time>
            </trkpt>
            <trkpt lat="47.245454695" lon="4.906866364">
                <ele>472.000000</ele>
                <time>2017-03-05T08:27:13Z</time>
            </trkpt>
            <trkpt lat="47.245400249" lon="4.906711098">
                <ele>472.000000</ele>
            </trkpt>
            <trkpt lat="47.245348412" lon="4.906549277">
                <ele>472.000000</ele>
                <time>2017-03-05T08:27:29Z</time>
            </trkpt>
            <trkpt lat="47.245269455" lon="4.906289103">
                <ele>473.000000</ele>
                <time>2017-03-05T08:27:44Z</time>
            </trkpt>
            <trkpt lat="47.245193962" lon="4.906122950">
                <ele>473.000000</ele>
            </trkpt>
            <trkpt lat="47.245086646" lon="4.905957431">
                <ele>473.000000</ele>
                <time>2017-03-05T08:28:04Z</time>
            </trkpt>
            <trkpt lat="47.244894868" lon="4.905749643">
                <ele>474.000000</ele>
                <time>2017-03-05T08:28:20Z</time>
            </trkpt>
            <trkpt lat="47.244689763" lon="4.905558955">
                <ele>474.000000</ele>
                <time>2017-03-05T08:28:36Z</time>
            </trkpt>
            <trkpt lat="47.244518856" lon="4.905368686">
                <ele>473.000000</ele>
                <time>2017-03-05T08:28:50Z</time>
            </trkpt>
            <trkpt lat="47.244351888" lon="4.905207418">
                <ele>472.000000</ele>
                <time>2017-03-05T08:29:02Z</time>
            </trkpt>
            <trkpt lat="47.244188055" lon="4.905066881">
                <ele>472.000000</ele>
                <time>2017-03-05T08:29:08Z</time>
            </trkpt>
            <trkpt lat="47.244058689" lon="4.904917823">
                <ele>471.000000</ele>
                <time>2017-03-05T08:29:25Z</time>
            </trkpt>
            <trkpt lat="47.243857775" lon="4.904719591">
                <ele>472.000000</ele>
                <time>2017-03-05T08:29:41Z</time>
            </trkpt>
            <trkpt lat="47.243667590" lon="4.904543655">
                <ele>472.000000</ele>
                <time>2017-03-05T08:29:55Z</time>
            </trkpt>
            <trkpt lat="47.243505232" lon="4.904381884">
                <ele>472.000000</ele>
                <time>2017-03-05T08:30:08Z</time>
            </trkpt>
            <trkpt lat="47.243390344" lon="4.904260389">
                <ele>472.000000</ele>
                <time>2017-03-05T08:30:22Z</time>
            </trkpt>
            <trkpt lat="47.243269658" lon="4.904122434">
                <ele>472.000000</ele>
                <time>2017-03-05T08:30:37Z</time>
            </trkpt>
            <trkpt lat="47.243099501" lon="4.903932545">
                <ele>472.000000</ele>
            </trkpt>
            <trkpt lat="47.242946017" lon="4.903751718">
                <ele>472.000000</ele>
                <time>2017-03-05T08:30:53Z</time>
            </trkpt>
            <trkpt lat="47.242832419" lon="4.903548024">
                <ele>472.000000</ele>
                <time>2017-03-05T08:31:07Z</time>
            </trkpt>
            <trkpt lat="47.242699983" lon="4.903333224">
                <ele>473.000000</ele>
                <time>2017-03-05T08:31:25Z</time>
            </trkpt>
            <trkpt lat="47.242609922" lon="4.903182164">
                <ele>473.000000</ele>
                <time>2017-03-05T08:31:41Z</time>
            </trkpt>
            <trkpt lat="47.242507928" lon="4.902962509">
                <ele>474.000000</ele>
                <time>2017-03-05T08:31:55Z</time>
            </trkpt>
            <trkpt lat="47.242405199" lon="4.902775859">
                <ele>475.000000</ele>
                <time>2017-03-05T08:32:13Z</time>
            </trkpt>
            <trkpt lat="47.242291966" lon="4.902555667">
                <ele>475.000000</ele>
                <time>2017-03-05T08:32:19Z</time>
            </trkpt>
            <trkpt lat="47.242189776" lon="4.902362600">
                <ele>475.000000</ele>
                <time>2017-03-05T08:32:23Z</time>
            </trkpt>
            <trkpt lat="47.242068658" lon="4.902148275">
                <ele>475.000000</ele>
                <time>2017-03-05T08:32:35Z</time>
            </trkpt>
            <trkpt lat="47.241934305" lon="4.901943794">
                <ele>476.000000</ele>
                <time>2017-03-05T08:32:50Z</time>
            </trkpt>
            <trkpt lat="47.241815267" lon="4.901731587">
                <ele>478.000000</ele>
            </trkpt>
            <trkpt lat="47.241712720" lon="4.901536691">
                <ele>479.000000</ele>
                <time>2017-03-05T08:33:07Z</time>
            </trkpt>
            <trkpt lat="47.241608910" lon="4.901343947">
                <ele>479.000000</ele>
                <time>2017-03-05T08:33:24Z</time>
            </trkpt>
            <trkpt lat="47.241523015" lon="4.901213719">
                <ele>480.000000</ele>
                <time>2017-03-05T08:33:37Z</time>
            </trkpt>
            <trkpt lat="47.241368794" lon="4.901065909">
                <ele>480.000000</ele>
                <time>2017-03-05T08:33:41Z</time>
            </trkpt>
            <trkpt lat="47.241226025" lon="4.900956452">
                <ele>480.000000</ele>
                <time>2017-03-05T08:33:56Z</time>
            </trkpt>
            <trkpt lat="47.241086613" lon="4.900854150">
                <ele>480.000000</ele>
                <time>2017-03-05T08:34:12Z</time>
            </trkpt>
            <trkpt lat="47.240942897" lon="4.900739886">
                <ele>480.000000</ele>
                <time>2017-03-05T08:34:29Z</time>
            </trkpt>
            <trkpt lat="47.240833445" lon="4.900602484">
                <ele>480.000000</ele>
                <time>2017-03-05T08:36:56Z</time>
            </trkpt>
            <trkpt lat="47.240734499" lon="4.900498625">
                <ele>480.000000</ele>
                <time>2017-03-05T08:37:28Z</time>
            </trkpt>
            <trkpt lat="47.240585896" lon="4.900351089">
                <ele>479.000000</ele>
                <time>2017-03-05T08:37:43Z</time>
            </trkpt>
            <trkpt lat="47.240442545" lon="4.900220325">
                <ele>479.000000</ele>
                <time>2017-03-05T08:38:01Z</time>
            </trkpt>
            <trkpt lat="47.240321122" lon="4.900115391">
                <ele>478.000000</ele>
                <time>2017-03-05T08:38:18Z</time>
            </trkpt>
            <trkpt lat="47.240220892" lon="4.900069291">
                <ele>478.000000</ele>
                <time>2017-03-05T08:38:31Z</time>
            </trkpt>
            <trkpt lat="47.240109973" lon="4.899997900">
                <ele>477.000000</ele>
                <time>2017-03-05T08:38:44Z</time>
            </trkpt>
            <trkpt lat="47.240021165" lon="4.899944088">
                <ele>477.000000</ele>
                <time>2017-03-05T08:39:01Z</time>
            </trkpt>
            <trkpt lat="47.239904261" lon="4.899888931">
                <ele>477.000000</ele>
                <time>2017-03-05T08:39:20Z</time>
            </trkpt>
            <trkpt lat="47.239787173" lon="4.899842025">
                <ele>476.000000</ele>
                <time>2017-03-05T08:39:39Z</time>
            </trkpt>
            <trkpt lat="47.239652861" lon="4.899810813">
                <ele>476.000000</ele>
                <time>2017-03-05T08:39:46Z</time>
            </trkpt>
            <trkpt lat="47.239530338" lon="4.899755388">
                <ele>475.000000</ele>
                <time>2017-03-05T08:39:57Z</time>
            </trkpt>
            <trkpt lat="47.239417953" lon="4.899750006">
                <ele>475.000000</ele>
                <time>2017-03-05T08:40:12Z</time>
            </trkpt>
            <trkpt lat="47.239277655" lon="4.899735027">
                <ele>474.000000</ele>
                <time>2017-03-05T08:40:13Z</time>
            </trkpt>
            <trkpt lat="47.239148779" lon="4.899712337">
                <ele>474.000000</ele>
                <time>2017-03-05T08:40:14Z</time>
            </trkpt>
            <trkpt lat="47.239031056" lon="4.899716182">
                <ele>473.000000</ele>
                <time>2017-03-05T08:40:15Z</time>
            </trkpt>
            <trkpt lat="47.238912954" lon="4.899692784">
                <ele>473.000000</ele>
                <time>2017-03-05T08:40:16Z</time>
            </trkpt>
            <trkpt lat="47.238755982" lon="4.899668748">
                <ele>473.000000</ele>
                <time>2017-03-05T08:40:29Z</time>
            </trkpt>
            <trkpt lat="47.238576716" lon="4.899635385">
                <ele>473.000000</ele>
                <time>2017-03-05T08:40:44Z</time>
            </trkpt>
            <trkpt lat="47.238425180" lon="4.899619869">
                <ele>473.000000</ele>
                <time>2017-03-05T08:40:58Z</time>
            </trkpt>
            <trkpt lat="47.238273643" lon="4.899604353">
                <ele>473.000000</ele>
                <time>2017-03-05T08:41:12Z</time>
            </trkpt>
            <trkpt lat="47.238065365" lon="4.899610899">
                <ele>473.000000</ele>
            </trkpt>
            <trkpt lat="47.237892207" lon="4.899623729">
                <ele>472.000000</ele>
                <time>2017-03-05T08:41:27Z</time>
            </trkpt>
            <trkpt lat="47.237648042" lon="4.899712578">
                <ele>471.000000</ele>
                <time>2017-03-05T08:41:42Z</time>
            </trkpt>
            <trkpt lat="47.237492323" lon="4.899831241">
                <ele>470.000000</ele>
            </trkpt>
            <trkpt lat="47.237331136" lon="4.899996968">
                <ele>468.000000</ele>
                <time>2017-03-05T08:41:59Z</time>
            </trkpt>
            <trkpt lat="47.237225590" lon="4.900190138">
                <ele>468.000000</ele>
                <time>2017-03-05T08:42:13Z</time>
            </trkpt>
            <trkpt lat="47.237132387" lon="4.900447084">
                <ele>467.000000</ele>
                <time>2017-03-05T08:42:26Z</time>
            </trkpt>
            <trkpt lat="47.236990482" lon="4.900681023">
                <ele>467.000000</ele>
                <time>2017-03-05T08:42:40Z</time>
            </trkpt>
            <trkpt lat="47.236884825" lon="4.900842820">
                <ele>467.000000</ele>
                <time>2017-03-05T08:42:56Z</time>
            </trkpt>
            <trkpt lat="47.236804689" lon="4.900905055">
                <ele>467.000000</ele>
                <time>2017-03-05T08:43:03Z</time>
            </trkpt>
            <trkpt lat="47.236671596" lon="4.901072123">
                <ele>467.000000</ele>
                <time>2017-03-05T08:43:04Z</time>
            </trkpt>
            <trkpt lat="47.236602819" lon="4.901278485">
                <ele>468.000000</ele>
                <time>2017-03-05T08:43:19Z</time>
            </trkpt>
            <trkpt lat="47.236556028" lon="4.901463030">
                <ele>469.000000</ele>
                <time>2017-03-05T08:43:34Z</time>
            </trkpt>
            <trkpt lat="47.236522430" lon="4.901709197">
                <ele>469.000000</ele>
                <time>2017-03-05T08:43:49Z</time>
            </trkpt>
            <trkpt lat="47.236516010" lon="4.901997963">
                <ele>470.000000</ele>
            </trkpt>
            <trkpt lat="47.236504338" lon="4.902269958">
                <ele>472.000000</ele>
                <time>2017-03-05T08:44:04Z</time>
            </trkpt>
            <trkpt lat="47.236526563" lon="4.902535319">
                <ele>474.000000</ele>
                <time>2017-03-05T08:44:20Z</time>
            </trkpt>
            <trkpt lat="47.236542985" lon="4.902808662">
                <ele>475.000000</ele>
                <time>2017-03-05T08:44:38Z</time>
            </trkpt>
            <trkpt lat="47.236558673" lon="4.903115006">
                <ele>475.000000</ele>
            </trkpt>
            <trkpt lat="47.236570045" lon="4.903432298">
                <ele>476.000000</ele>
                <time>2017-03-05T08:44:54Z</time>
            </trkpt>
            <trkpt lat="47.236578440" lon="4.903743657">
                <ele>477.000000</ele>
                <time>2017-03-05T08:45:10Z</time>
            </trkpt>
            <trkpt lat="47.236568599" lon="4.903933148">
                <ele>477.000000</ele>
                <time>2017-03-05T08:45:24Z</time>
            </trkpt>
            <trkpt lat="47.236558390" lon="4.904139140">
                <ele>478.000000</ele>
            </trkpt>
            <trkpt lat="47.236531069" lon="4.904395295">
                <ele>479.000000</ele>
                <time>2017-03-05T08:45:41Z</time>
            </trkpt>
            <trkpt lat="47.236470174" lon="4.904564389">
                <ele>480.000000</ele>
                <time>2017-03-05T08:45:56Z</time>
            </trkpt>
            <trkpt lat="47.236289624" lon="4.904588764">
                <ele>482.000000</ele>
            </trkpt>
            <trkpt lat="47.236104006" lon="4.904588118">
                <ele>483.000000</ele>
                <time>2017-03-05T08:46:12Z</time>
            </trkpt>
            <trkpt lat="47.235941232" lon="4.904572049">
                <ele>484.000000</ele>
                <time>2017-03-05T08:46:26Z</time>
            </trkpt>
            <trkpt lat="47.235751279" lon="4.904513381">
                <ele>485.000000</ele>
                <time>2017-03-05T08:46:42Z</time>
            </trkpt>
            <trkpt lat="47.235599927" lon="4.904489602">
                <ele>486.000000</ele>
                <time>2017-03-05T08:47:00Z</time>
            </trkpt>
            <trkpt lat="47.235432084" lon="4.904448514">
                <ele>487.000000</ele>
            </trkpt>
            <trkpt lat="47.235291971" lon="4.904425274">
                <ele>487.000000</ele>
                <time>2017-03-05T08:47:17Z</time>
            </trkpt>
            <trkpt lat="47.235157660" lon="4.904394054">
                <ele>488.000000</ele>
                <time>2017-03-05T08:47:35Z</time>
            </trkpt>
            <trkpt lat="47.234939611" lon="4.904334040">
                <ele>489.000000</ele>
            </trkpt>
            <trkpt lat="47.234726814" lon="4.904290796">
                <ele>490.000000</ele>
                <time>2017-03-05T08:47:50Z</time>
            </trkpt>
            <trkpt lat="47.234531243" lon="4.904231861">
                <ele>492.000000</ele>
                <time>2017-03-05T08:48:04Z</time>
            </trkpt>
            <trkpt lat="47.234329684" lon="4.904189157">
                <ele>495.000000</ele>
                <time>2017-03-05T08:48:21Z</time>
            </trkpt>
            <trkpt lat="47.234173447" lon="4.904132110">
                <ele>496.000000</ele>
                <time>2017-03-05T08:48:34Z</time>
            </trkpt>
            <trkpt lat="47.234017026" lon="4.904083313">
                <ele>497.000000</ele>
                <time>2017-03-05T08:48:50Z</time>
            </trkpt>
            <trkpt lat="47.233821638" lon="4.904016129">
                <ele>498.000000</ele>
                <time>2017-03-05T08:49:05Z</time>
            </trkpt>
            <trkpt lat="47.233642557" lon="4.903974505">
                <ele>499.000000</ele>
                <time>2017-03-05T08:49:20Z</time>
            </trkpt>
            <trkpt lat="47.233463475" lon="4.903932880">
                <ele>501.000000</ele>
                <time>2017-03-05T08:49:32Z</time>
            </trkpt>
            <trkpt lat="47.233307605" lon="4.903859335">
                <ele>501.000000</ele>
                <time>2017-03-05T08:49:33Z</time>
            </trkpt>
            <trkpt lat="47.233124556" lon="4.903743192">
                <ele>502.000000</ele>
                <time>2017-03-05T08:49:34Z</time>
            </trkpt>
            <trkpt lat="47.232958181" lon="4.903636109">
                <ele>502.000000</ele>
                <time>2017-03-05T08:49:49Z</time>
            </trkpt>
            <trkpt lat="47.232819352" lon="4.903555124">
                <ele>504.000000</ele>
                <time>2017-03-05T08:50:03Z</time>
            </trkpt>
            <trkpt lat="47.232681074" lon="4.903449389">
                <ele>505.000000</ele>
                <time>2017-03-05T08:50:15Z</time>
            </trkpt>
            <trkpt lat="47.232508896" lon="4.903350288">
                <ele>507.000000</ele>
                <time>2017-03-05T08:50:29Z</time>
            </trkpt>
            <trkpt lat="47.232358644" lon="4.903277014">
                <ele>508.000000</ele>
                <time>2017-03-05T08:50:45Z</time>
            </trkpt>
            <trkpt lat="47.232185365" lon="4.903227413">
                <ele>511.000000</ele>
                <time>2017-03-05T08:51:00Z</time>
            </trkpt>
            <trkpt lat="47.232026551" lon="4.903235743">
                <ele>514.000000</ele>
                <time>2017-03-05T08:51:14Z</time>
            </trkpt>
            <trkpt lat="47.231884394" lon="4.903293410">
                <ele>511.000000</ele>
                <time>2017-03-05T08:51:25Z</time>
            </trkpt>
            <trkpt lat="47.231810825" lon="4.903374626">
                <ele>510.000000</ele>
                <time>2017-03-05T08:51:36Z</time>
            </trkpt>
            <trkpt lat="47.231728301" lon="4.903544097">
                <ele>507.000000</ele>
                <time>2017-03-05T08:51:42Z</time>
            </trkpt>
            <trkpt lat="47.231678283" lon="4.903703704">
                <ele>505.000000</ele>
                <time>2017-03-05T08:51:49Z</time>
            </trkpt>
            <trkpt lat="47.231641923" lon="4.903886812">
                <ele>504.000000</ele>
                <time>2017-03-05T08:52:01Z</time>
            </trkpt>
            <trkpt lat="47.231615774" lon="4.904050728">
                <ele>503.000000</ele>
                <time>2017-03-05T08:52:13Z</time>
            </trkpt>
            <trkpt lat="47.231584006" lon="4.904214374">
                <ele>502.000000</ele>
                <time>2017-03-05T08:52:15Z</time>
            </trkpt>
            <trkpt lat="47.231536482" lon="4.904327713">
                <ele>501.000000</ele>
                <time>2017-03-05T08:52:16Z</time>
            </trkpt>
            <trkpt lat="47.231461412" lon="4.904414955">
                <ele>500.000000</ele>
                <time>2017-03-05T08:52:30Z</time>
            </trkpt>
            <trkpt lat="47.231353178" lon="4.904475831">
                <ele>498.000000</ele>
                <time>2017-03-05T08:52:32Z</time>
            </trkpt>
            <trkpt lat="47.231262168" lon="4.904521016">
                <ele>497.000000</ele>
                <time>2017-03-05T08:52:35Z</time>
            </trkpt>
            <trkpt lat="47.231140676" lon="4.904672098">
                <ele>495.000000</ele>
                <time>2017-03-05T08:52:36Z</time>
            </trkpt>
            <trkpt lat="47.231024802" lon="4.904823449">
                <ele>493.000000</ele>
                <time>2017-03-05T08:52:50Z</time>
            </trkpt>
            <trkpt lat="47.230886084" lon="4.904990220">
                <ele>491.000000</ele>
                <time>2017-03-05T08:53:05Z</time>
            </trkpt>
            <trkpt lat="47.230794156" lon="4.905076651">
                <ele>490.000000</ele>
                <time>2017-03-05T08:53:14Z</time>
            </trkpt>
            <trkpt lat="47.230707480" lon="4.905179851">
                <ele>489.000000</ele>
                <time>2017-03-05T08:53:15Z</time>
            </trkpt>
            <trkpt lat="47.230604313" lon="4.905265743">
                <ele>488.000000</ele>
                <time>2017-03-05T08:53:16Z</time>
            </trkpt>
            <trkpt lat="47.230512752" lon="4.905335674">
                <ele>487.000000</ele>
                <time>2017-03-05T08:53:17Z</time>
            </trkpt>
            <trkpt lat="47.230403966" lon="4.905421296">
                <ele>486.000000</ele>
                <time>2017-03-05T08:53:18Z</time>
            </trkpt>
            <trkpt lat="47.230267084" lon="4.905505568">
                <ele>486.000000</ele>
                <time>2017-03-05T08:53:19Z</time>
            </trkpt>
            <trkpt lat="47.230159400" lon="4.905541692">
                <ele>485.000000</ele>
                <time>2017-03-05T08:53:20Z</time>
            </trkpt>
            <trkpt lat="47.230023252" lon="4.905592966">
                <ele>484.000000</ele>
                <time>2017-03-05T08:53:21Z</time>
            </trkpt>
            <trkpt lat="47.229921371" lon="4.905621110">
                <ele>483.000000</ele>
                <time>2017-03-05T08:53:22Z</time>
            </trkpt>
            <trkpt lat="47.229790475" lon="4.905689152">
                <ele>482.000000</ele>
                <time>2017-03-05T08:53:37Z</time>
            </trkpt>
            <trkpt lat="47.229615911" lon="4.905697291">
                <ele>481.000000</ele>
                <time>2017-03-05T08:54:19Z</time>
            </trkpt>
            <trkpt lat="47.229469995" lon="4.905682031">
                <ele>480.000000</ele>
                <time>2017-03-05T08:54:35Z</time>
            </trkpt>
            <trkpt lat="47.229341854" lon="4.905626332">
                <ele>479.000000</ele>
                <time>2017-03-05T08:54:50Z</time>
            </trkpt>
            <trkpt lat="47.229219333" lon="4.905570904">
                <ele>479.000000</ele>
                <time>2017-03-05T08:55:07Z</time>
            </trkpt>
            <trkpt lat="47.229102247" lon="4.905523995">
                <ele>478.000000</ele>
                <time>2017-03-05T08:55:23Z</time>
            </trkpt>
            <trkpt lat="47.228963235" lon="4.905451259">
                <ele>477.000000</ele>
                <time>2017-03-05T08:55:28Z</time>
            </trkpt>
        </trkseg>
    </trk>
</gpx>
